<?xml version="1.0" encoding="UTF-8" standalone="no" ?><gpx xmlns="http://www.topografix.com/GPX/1/1" xmlns:gpxx="http://www.garmin.com/xmlschemas/WaypointExtension/v1" xmlns:gpxtrx="http://www.garmin.com/xmlschemas/GpxExtensions/v3" xmlns:gpxtpx="http://www.garmin.com/xmlschemas/TrackPointExtension/v1" creator="Oregon 450t" version="1.1" xmlns:xsi="http://www.w3.org/2001/XMLSchema-instance" xsi:schemaLocation="http://www.topografix.com/GPX/1/1 http://www.topografix.com/GPX/1/1/gpx.xsd http://www.garmin.com/xmlschemas/WaypointExtension/v1 http://www8.garmin.com/xmlschemas/WaypointExtensionv1.xsd http://www.garmin.com/xmlschemas/TrackPointExtension/v1 http://www.garmin.com/xmlschemas/TrackPointExtensionv1.xsd"><metadata><link href="http://www.garmin.com"><text>Garmin International</text></link><time>2015-09-26T12:05:37Z</time></metadata><trk><name>26-SEP-15 14:05:35</name><extensions><gpxtrx:TrackExtension><gpxtrx:DisplayColor>Black</gpxtrx:DisplayColor></gpxtrx:TrackExtension></extensions><trkseg><trkpt lat="46.673775" lon="8.860575"><ele>1285.90</ele><time>2015-09-26T08:31:21Z</time></trkpt><trkpt lat="46.673767" lon="8.860572"><ele>1284.94</ele><time>2015-09-26T08:31:22Z</time></trkpt><trkpt lat="46.673702" lon="8.860650"><ele>1285.42</ele><time>2015-09-26T08:31:42Z</time></trkpt><trkpt lat="46.673729" lon="8.860664"><ele>1286.86</ele><time>2015-09-26T08:31:45Z</time></trkpt><trkpt lat="46.673759" lon="8.860676"><ele>1286.86</ele><time>2015-09-26T08:31:48Z</time></trkpt><trkpt lat="46.673832" lon="8.860773"><ele>1288.78</ele><time>2015-09-26T08:32:00Z</time></trkpt><trkpt lat="46.673939" lon="8.860837"><ele>1289.75</ele><time>2015-09-26T08:32:10Z</time></trkpt><trkpt lat="46.673958" lon="8.860849"><ele>1290.71</ele><time>2015-09-26T08:32:12Z</time></trkpt><trkpt lat="46.673996" lon="8.860885"><ele>1290.71</ele><time>2015-09-26T08:32:16Z</time></trkpt><trkpt lat="46.674019" lon="8.860888"><ele>1291.67</ele><time>2015-09-26T08:32:18Z</time></trkpt><trkpt lat="46.674049" lon="8.860908"><ele>1291.67</ele><time>2015-09-26T08:32:21Z</time></trkpt><trkpt lat="46.674206" lon="8.860968"><ele>1294.55</ele><time>2015-09-26T08:32:35Z</time></trkpt><trkpt lat="46.674347" lon="8.861041"><ele>1296.96</ele><time>2015-09-26T08:32:48Z</time></trkpt><trkpt lat="46.674404" lon="8.861082"><ele>1297.92</ele><time>2015-09-26T08:32:53Z</time></trkpt><trkpt lat="46.674446" lon="8.861130"><ele>1298.40</ele><time>2015-09-26T08:32:57Z</time></trkpt><trkpt lat="46.674484" lon="8.861197"><ele>1300.32</ele><time>2015-09-26T08:33:03Z</time></trkpt><trkpt lat="46.674503" lon="8.861270"><ele>1300.32</ele><time>2015-09-26T08:33:08Z</time></trkpt><trkpt lat="46.674515" lon="8.861324"><ele>1301.28</ele><time>2015-09-26T08:33:12Z</time></trkpt><trkpt lat="46.674534" lon="8.861400"><ele>1302.24</ele><time>2015-09-26T08:33:17Z</time></trkpt><trkpt lat="46.674545" lon="8.861425"><ele>1302.24</ele><time>2015-09-26T08:33:19Z</time></trkpt><trkpt lat="46.674561" lon="8.861508"><ele>1304.17</ele><time>2015-09-26T08:33:24Z</time></trkpt><trkpt lat="46.674603" lon="8.861685"><ele>1306.57</ele><time>2015-09-26T08:33:36Z</time></trkpt><trkpt lat="46.674606" lon="8.861698"><ele>1306.57</ele><time>2015-09-26T08:33:37Z</time></trkpt><trkpt lat="46.674618" lon="8.861752"><ele>1307.53</ele><time>2015-09-26T08:33:41Z</time></trkpt><trkpt lat="46.674656" lon="8.861917"><ele>1308.49</ele><time>2015-09-26T08:33:52Z</time></trkpt><trkpt lat="46.674690" lon="8.862000"><ele>1310.41</ele><time>2015-09-26T08:33:58Z</time></trkpt><trkpt lat="46.674728" lon="8.862082"><ele>1310.90</ele><time>2015-09-26T08:34:05Z</time></trkpt><trkpt lat="46.674755" lon="8.862127"><ele>1312.82</ele><time>2015-09-26T08:34:09Z</time></trkpt><trkpt lat="46.674801" lon="8.862229"><ele>1313.78</ele><time>2015-09-26T08:34:17Z</time></trkpt><trkpt lat="46.674809" lon="8.862256"><ele>1313.30</ele><time>2015-09-26T08:34:19Z</time></trkpt><trkpt lat="46.674820" lon="8.862275"><ele>1314.26</ele><time>2015-09-26T08:34:21Z</time></trkpt><trkpt lat="46.674828" lon="8.862305"><ele>1314.26</ele><time>2015-09-26T08:34:23Z</time></trkpt><trkpt lat="46.674892" lon="8.862424"><ele>1316.66</ele><time>2015-09-26T08:34:34Z</time></trkpt><trkpt lat="46.674919" lon="8.862496"><ele>1317.62</ele><time>2015-09-26T08:34:45Z</time></trkpt><trkpt lat="46.674923" lon="8.862505"><ele>1317.62</ele><time>2015-09-26T08:34:46Z</time></trkpt><trkpt lat="46.674942" lon="8.862563"><ele>1318.59</ele><time>2015-09-26T08:34:51Z</time></trkpt><trkpt lat="46.674961" lon="8.862609"><ele>1319.55</ele><time>2015-09-26T08:34:55Z</time></trkpt><trkpt lat="46.674965" lon="8.862659"><ele>1319.55</ele><time>2015-09-26T08:34:59Z</time></trkpt><trkpt lat="46.674995" lon="8.862828"><ele>1321.95</ele><time>2015-09-26T08:35:11Z</time></trkpt><trkpt lat="46.675049" lon="8.863018"><ele>1324.35</ele><time>2015-09-26T08:35:24Z</time></trkpt><trkpt lat="46.675060" lon="8.863062"><ele>1324.35</ele><time>2015-09-26T08:35:27Z</time></trkpt><trkpt lat="46.675137" lon="8.863203"><ele>1327.24</ele><time>2015-09-26T08:35:42Z</time></trkpt><trkpt lat="46.675144" lon="8.863246"><ele>1328.68</ele><time>2015-09-26T08:35:49Z</time></trkpt><trkpt lat="46.675106" lon="8.863295"><ele>1329.64</ele><time>2015-09-26T08:35:55Z</time></trkpt><trkpt lat="46.675072" lon="8.863347"><ele>1330.60</ele><time>2015-09-26T08:36:00Z</time></trkpt><trkpt lat="46.674973" lon="8.863280"><ele>1333.49</ele><time>2015-09-26T08:36:15Z</time></trkpt><trkpt lat="46.674923" lon="8.863221"><ele>1334.45</ele><time>2015-09-26T08:36:22Z</time></trkpt><trkpt lat="46.674908" lon="8.863206"><ele>1334.45</ele><time>2015-09-26T08:36:24Z</time></trkpt><trkpt lat="46.674831" lon="8.863095"><ele>1336.85</ele><time>2015-09-26T08:36:36Z</time></trkpt><trkpt lat="46.674755" lon="8.862908"><ele>1338.77</ele><time>2015-09-26T08:36:50Z</time></trkpt><trkpt lat="46.674652" lon="8.862761"><ele>1341.18</ele><time>2015-09-26T08:37:03Z</time></trkpt><trkpt lat="46.674599" lon="8.862740"><ele>1342.14</ele><time>2015-09-26T08:37:08Z</time></trkpt><trkpt lat="46.674576" lon="8.862739"><ele>1342.14</ele><time>2015-09-26T08:37:10Z</time></trkpt><trkpt lat="46.674511" lon="8.862743"><ele>1343.58</ele><time>2015-09-26T08:37:16Z</time></trkpt><trkpt lat="46.674477" lon="8.862783"><ele>1343.58</ele><time>2015-09-26T08:37:20Z</time></trkpt><trkpt lat="46.674500" lon="8.862890"><ele>1345.50</ele><time>2015-09-26T08:37:29Z</time></trkpt><trkpt lat="46.674557" lon="8.863011"><ele>1346.94</ele><time>2015-09-26T08:37:38Z</time></trkpt><trkpt lat="46.674606" lon="8.863113"><ele>1348.39</ele><time>2015-09-26T08:37:47Z</time></trkpt><trkpt lat="46.674625" lon="8.863173"><ele>1348.87</ele><time>2015-09-26T08:37:51Z</time></trkpt><trkpt lat="46.674629" lon="8.863206"><ele>1349.35</ele><time>2015-09-26T08:37:53Z</time></trkpt><trkpt lat="46.674706" lon="8.863421"><ele>1352.71</ele><time>2015-09-26T08:38:09Z</time></trkpt><trkpt lat="46.674755" lon="8.863580"><ele>1354.63</ele><time>2015-09-26T08:38:21Z</time></trkpt><trkpt lat="46.674786" lon="8.863662"><ele>1355.60</ele><time>2015-09-26T08:38:27Z</time></trkpt><trkpt lat="46.674809" lon="8.863740"><ele>1357.04</ele><time>2015-09-26T08:38:33Z</time></trkpt><trkpt lat="46.674820" lon="8.863764"><ele>1357.04</ele><time>2015-09-26T08:38:35Z</time></trkpt><trkpt lat="46.674847" lon="8.863868"><ele>1358.48</ele><time>2015-09-26T08:38:42Z</time></trkpt><trkpt lat="46.674862" lon="8.863893"><ele>1359.44</ele><time>2015-09-26T08:38:44Z</time></trkpt><trkpt lat="46.674904" lon="8.864047"><ele>1361.36</ele><time>2015-09-26T08:38:57Z</time></trkpt><trkpt lat="46.674911" lon="8.864101"><ele>1361.84</ele><time>2015-09-26T08:39:01Z</time></trkpt><trkpt lat="46.674915" lon="8.864135"><ele>1362.33</ele><time>2015-09-26T08:39:03Z</time></trkpt><trkpt lat="46.674923" lon="8.864165"><ele>1362.33</ele><time>2015-09-26T08:39:05Z</time></trkpt><trkpt lat="46.674934" lon="8.864215"><ele>1363.29</ele><time>2015-09-26T08:39:08Z</time></trkpt><trkpt lat="46.674946" lon="8.864264"><ele>1363.29</ele><time>2015-09-26T08:39:12Z</time></trkpt><trkpt lat="46.674946" lon="8.864326"><ele>1364.73</ele><time>2015-09-26T08:39:16Z</time></trkpt><trkpt lat="46.674942" lon="8.864429"><ele>1365.69</ele><time>2015-09-26T08:39:23Z</time></trkpt><trkpt lat="46.674938" lon="8.864462"><ele>1365.69</ele><time>2015-09-26T08:39:25Z</time></trkpt><trkpt lat="46.674942" lon="8.864494"><ele>1366.65</ele><time>2015-09-26T08:39:27Z</time></trkpt><trkpt lat="46.674938" lon="8.864529"><ele>1366.17</ele><time>2015-09-26T08:39:29Z</time></trkpt><trkpt lat="46.674953" lon="8.864614"><ele>1367.61</ele><time>2015-09-26T08:39:35Z</time></trkpt><trkpt lat="46.674953" lon="8.864658"><ele>1368.09</ele><time>2015-09-26T08:39:38Z</time></trkpt><trkpt lat="46.674984" lon="8.864757"><ele>1369.05</ele><time>2015-09-26T08:39:44Z</time></trkpt><trkpt lat="46.674995" lon="8.864874"><ele>1370.50</ele><time>2015-09-26T08:39:53Z</time></trkpt><trkpt lat="46.674995" lon="8.864906"><ele>1370.98</ele><time>2015-09-26T08:39:55Z</time></trkpt><trkpt lat="46.674999" lon="8.865074"><ele>1372.90</ele><time>2015-09-26T08:40:07Z</time></trkpt><trkpt lat="46.674995" lon="8.865111"><ele>1373.38</ele><time>2015-09-26T08:40:09Z</time></trkpt><trkpt lat="46.675018" lon="8.865252"><ele>1374.82</ele><time>2015-09-26T08:40:18Z</time></trkpt><trkpt lat="46.675026" lon="8.865300"><ele>1375.30</ele><time>2015-09-26T08:40:21Z</time></trkpt><trkpt lat="46.675056" lon="8.865442"><ele>1377.23</ele><time>2015-09-26T08:40:34Z</time></trkpt><trkpt lat="46.675064" lon="8.865473"><ele>1376.75</ele><time>2015-09-26T08:40:36Z</time></trkpt><trkpt lat="46.675076" lon="8.865511"><ele>1376.75</ele><time>2015-09-26T08:40:39Z</time></trkpt><trkpt lat="46.675045" lon="8.865721"><ele>1375.78</ele><time>2015-09-26T08:40:50Z</time></trkpt><trkpt lat="46.675026" lon="8.865913"><ele>1375.78</ele><time>2015-09-26T08:41:01Z</time></trkpt><trkpt lat="46.674915" lon="8.866124"><ele>1375.30</ele><time>2015-09-26T08:41:17Z</time></trkpt><trkpt lat="46.674843" lon="8.866344"><ele>1374.82</ele><time>2015-09-26T08:41:31Z</time></trkpt><trkpt lat="46.674870" lon="8.866466"><ele>1374.34</ele><time>2015-09-26T08:41:42Z</time></trkpt><trkpt lat="46.674950" lon="8.866672"><ele>1373.86</ele><time>2015-09-26T08:41:55Z</time></trkpt><trkpt lat="46.674923" lon="8.866766"><ele>1374.34</ele><time>2015-09-26T08:42:10Z</time></trkpt><trkpt lat="46.674919" lon="8.866822"><ele>1375.30</ele><time>2015-09-26T08:42:31Z</time></trkpt><trkpt lat="46.674931" lon="8.866840"><ele>1375.30</ele><time>2015-09-26T08:42:42Z</time></trkpt><trkpt lat="46.674927" lon="8.866834"><ele>1375.30</ele><time>2015-09-26T08:42:54Z</time></trkpt><trkpt lat="46.674923" lon="8.866847"><ele>1376.75</ele><time>2015-09-26T08:43:08Z</time></trkpt><trkpt lat="46.674908" lon="8.866928"><ele>1376.26</ele><time>2015-09-26T08:43:13Z</time></trkpt><trkpt lat="46.674900" lon="8.866991"><ele>1376.75</ele><time>2015-09-26T08:43:18Z</time></trkpt><trkpt lat="46.674892" lon="8.867082"><ele>1376.75</ele><time>2015-09-26T08:43:24Z</time></trkpt><trkpt lat="46.674877" lon="8.867257"><ele>1375.78</ele><time>2015-09-26T08:43:36Z</time></trkpt><trkpt lat="46.674858" lon="8.867303"><ele>1376.26</ele><time>2015-09-26T08:43:39Z</time></trkpt><trkpt lat="46.674831" lon="8.867556"><ele>1376.26</ele><time>2015-09-26T08:43:55Z</time></trkpt><trkpt lat="46.674828" lon="8.867575"><ele>1376.75</ele><time>2015-09-26T08:43:56Z</time></trkpt><trkpt lat="46.674809" lon="8.867836"><ele>1376.26</ele><time>2015-09-26T08:44:11Z</time></trkpt><trkpt lat="46.674820" lon="8.868049"><ele>1376.26</ele><time>2015-09-26T08:44:23Z</time></trkpt><trkpt lat="46.674820" lon="8.868073"><ele>1376.26</ele><time>2015-09-26T08:44:24Z</time></trkpt><trkpt lat="46.674809" lon="8.868197"><ele>1376.26</ele><time>2015-09-26T08:44:31Z</time></trkpt><trkpt lat="46.674809" lon="8.868225"><ele>1376.26</ele><time>2015-09-26T08:44:33Z</time></trkpt><trkpt lat="46.674797" lon="8.868274"><ele>1376.26</ele><time>2015-09-26T08:44:36Z</time></trkpt><trkpt lat="46.674786" lon="8.868304"><ele>1375.78</ele><time>2015-09-26T08:44:38Z</time></trkpt><trkpt lat="46.674770" lon="8.868404"><ele>1376.26</ele><time>2015-09-26T08:44:45Z</time></trkpt><trkpt lat="46.674789" lon="8.868466"><ele>1376.26</ele><time>2015-09-26T08:44:48Z</time></trkpt><trkpt lat="46.674789" lon="8.868512"><ele>1376.75</ele><time>2015-09-26T08:44:50Z</time></trkpt><trkpt lat="46.674786" lon="8.868636"><ele>1376.75</ele><time>2015-09-26T08:44:56Z</time></trkpt><trkpt lat="46.674782" lon="8.868725"><ele>1376.75</ele><time>2015-09-26T08:45:02Z</time></trkpt><trkpt lat="46.674782" lon="8.868940"><ele>1375.78</ele><time>2015-09-26T08:45:17Z</time></trkpt><trkpt lat="46.674786" lon="8.868969"><ele>1375.30</ele><time>2015-09-26T08:45:19Z</time></trkpt><trkpt lat="46.674797" lon="8.869000"><ele>1374.82</ele><time>2015-09-26T08:45:21Z</time></trkpt><trkpt lat="46.674824" lon="8.869021"><ele>1373.38</ele><time>2015-09-26T08:45:24Z</time></trkpt><trkpt lat="46.674866" lon="8.869140"><ele>1371.94</ele><time>2015-09-26T08:45:37Z</time></trkpt><trkpt lat="46.674866" lon="8.869140"><ele>1372.42</ele><time>2015-09-26T08:45:50Z</time></trkpt><trkpt lat="46.674877" lon="8.869236"><ele>1373.38</ele><time>2015-09-26T08:46:04Z</time></trkpt><trkpt lat="46.674877" lon="8.869236"><ele>1373.86</ele><time>2015-09-26T08:46:20Z</time></trkpt><trkpt lat="46.674881" lon="8.869287"><ele>1374.34</ele><time>2015-09-26T08:46:32Z</time></trkpt><trkpt lat="46.674881" lon="8.869293"><ele>1373.86</ele><time>2015-09-26T08:46:33Z</time></trkpt><trkpt lat="46.674850" lon="8.869486"><ele>1375.78</ele><time>2015-09-26T08:46:46Z</time></trkpt><trkpt lat="46.674850" lon="8.869511"><ele>1376.26</ele><time>2015-09-26T08:46:48Z</time></trkpt><trkpt lat="46.674850" lon="8.869631"><ele>1378.67</ele><time>2015-09-26T08:46:58Z</time></trkpt><trkpt lat="46.674911" lon="8.869716"><ele>1380.11</ele><time>2015-09-26T08:47:08Z</time></trkpt><trkpt lat="46.674931" lon="8.869725"><ele>1380.59</ele><time>2015-09-26T08:47:10Z</time></trkpt><trkpt lat="46.674984" lon="8.869741"><ele>1380.59</ele><time>2015-09-26T08:47:18Z</time></trkpt><trkpt lat="46.675011" lon="8.869744"><ele>1380.11</ele><time>2015-09-26T08:47:21Z</time></trkpt><trkpt lat="46.675148" lon="8.869746"><ele>1382.99</ele><time>2015-09-26T08:47:36Z</time></trkpt><trkpt lat="46.675243" lon="8.869825"><ele>1384.92</ele><time>2015-09-26T08:47:48Z</time></trkpt><trkpt lat="46.675304" lon="8.869959"><ele>1387.32</ele><time>2015-09-26T08:48:01Z</time></trkpt><trkpt lat="46.675381" lon="8.870013"><ele>1389.24</ele><time>2015-09-26T08:48:13Z</time></trkpt><trkpt lat="46.675434" lon="8.870035"><ele>1388.76</ele><time>2015-09-26T08:48:19Z</time></trkpt><trkpt lat="46.675503" lon="8.870037"><ele>1387.32</ele><time>2015-09-26T08:48:28Z</time></trkpt><trkpt lat="46.675560" lon="8.870059"><ele>1386.84</ele><time>2015-09-26T08:48:33Z</time></trkpt><trkpt lat="46.675591" lon="8.870022"><ele>1387.80</ele><time>2015-09-26T08:48:38Z</time></trkpt><trkpt lat="46.675602" lon="8.870006"><ele>1388.28</ele><time>2015-09-26T08:48:53Z</time></trkpt><trkpt lat="46.675629" lon="8.869933"><ele>1389.72</ele><time>2015-09-26T08:49:04Z</time></trkpt><trkpt lat="46.675632" lon="8.869882"><ele>1390.68</ele><time>2015-09-26T08:49:10Z</time></trkpt><trkpt lat="46.675636" lon="8.869785"><ele>1393.57</ele><time>2015-09-26T08:49:23Z</time></trkpt><trkpt lat="46.675636" lon="8.869758"><ele>1393.57</ele><time>2015-09-26T08:49:25Z</time></trkpt><trkpt lat="46.675655" lon="8.869593"><ele>1394.05</ele><time>2015-09-26T08:49:36Z</time></trkpt><trkpt lat="46.675659" lon="8.869561"><ele>1395.01</ele><time>2015-09-26T08:49:38Z</time></trkpt><trkpt lat="46.675674" lon="8.869482"><ele>1395.97</ele><time>2015-09-26T08:49:43Z</time></trkpt><trkpt lat="46.675690" lon="8.869454"><ele>1396.45</ele><time>2015-09-26T08:49:46Z</time></trkpt><trkpt lat="46.675713" lon="8.869419"><ele>1397.41</ele><time>2015-09-26T08:49:53Z</time></trkpt><trkpt lat="46.675709" lon="8.869411"><ele>1396.93</ele><time>2015-09-26T08:50:10Z</time></trkpt><trkpt lat="46.675709" lon="8.869411"><ele>1396.93</ele><time>2015-09-26T08:50:11Z</time></trkpt><trkpt lat="46.675701" lon="8.869416"><ele>1397.89</ele><time>2015-09-26T08:50:25Z</time></trkpt><trkpt lat="46.675701" lon="8.869431"><ele>1399.34</ele><time>2015-09-26T08:50:45Z</time></trkpt><trkpt lat="46.675709" lon="8.869401"><ele>1400.78</ele><time>2015-09-26T08:50:57Z</time></trkpt><trkpt lat="46.675705" lon="8.869302"><ele>1403.66</ele><time>2015-09-26T08:51:09Z</time></trkpt><trkpt lat="46.675709" lon="8.869295"><ele>1403.66</ele><time>2015-09-26T08:51:10Z</time></trkpt><trkpt lat="46.675751" lon="8.869199"><ele>1403.18</ele><time>2015-09-26T08:51:21Z</time></trkpt><trkpt lat="46.675781" lon="8.869163"><ele>1402.70</ele><time>2015-09-26T08:51:25Z</time></trkpt><trkpt lat="46.675861" lon="8.869007"><ele>1403.18</ele><time>2015-09-26T08:51:39Z</time></trkpt><trkpt lat="46.675930" lon="8.868930"><ele>1401.74</ele><time>2015-09-26T08:51:49Z</time></trkpt><trkpt lat="46.675949" lon="8.868957"><ele>1404.14</ele><time>2015-09-26T08:52:01Z</time></trkpt><trkpt lat="46.675957" lon="8.869033"><ele>1406.55</ele><time>2015-09-26T08:52:14Z</time></trkpt><trkpt lat="46.675949" lon="8.869078"><ele>1408.95</ele><time>2015-09-26T08:52:26Z</time></trkpt><trkpt lat="46.675949" lon="8.869113"><ele>1411.83</ele><time>2015-09-26T08:52:38Z</time></trkpt><trkpt lat="46.675949" lon="8.869144"><ele>1413.76</ele><time>2015-09-26T08:52:50Z</time></trkpt><trkpt lat="46.675922" lon="8.869194"><ele>1417.12</ele><time>2015-09-26T08:53:03Z</time></trkpt><trkpt lat="46.675957" lon="8.869211"><ele>1419.04</ele><time>2015-09-26T08:53:15Z</time></trkpt><trkpt lat="46.675987" lon="8.869229"><ele>1420.97</ele><time>2015-09-26T08:53:28Z</time></trkpt><trkpt lat="46.676048" lon="8.869261"><ele>1423.85</ele><time>2015-09-26T08:53:42Z</time></trkpt><trkpt lat="46.676090" lon="8.869389"><ele>1426.73</ele><time>2015-09-26T08:53:56Z</time></trkpt><trkpt lat="46.676102" lon="8.869483"><ele>1428.66</ele><time>2015-09-26T08:54:07Z</time></trkpt><trkpt lat="46.676121" lon="8.869603"><ele>1430.58</ele><time>2015-09-26T08:54:18Z</time></trkpt><trkpt lat="46.676132" lon="8.869724"><ele>1432.02</ele><time>2015-09-26T08:54:29Z</time></trkpt><trkpt lat="46.676151" lon="8.869796"><ele>1432.98</ele><time>2015-09-26T08:54:35Z</time></trkpt><trkpt lat="46.676178" lon="8.869938"><ele>1434.42</ele><time>2015-09-26T08:54:48Z</time></trkpt><trkpt lat="46.676212" lon="8.870045"><ele>1436.35</ele><time>2015-09-26T08:54:59Z</time></trkpt><trkpt lat="46.676243" lon="8.870178"><ele>1437.79</ele><time>2015-09-26T08:55:11Z</time></trkpt><trkpt lat="46.676281" lon="8.870253"><ele>1439.71</ele><time>2015-09-26T08:55:21Z</time></trkpt><trkpt lat="46.676292" lon="8.870342"><ele>1441.63</ele><time>2015-09-26T08:55:29Z</time></trkpt><trkpt lat="46.676323" lon="8.870477"><ele>1443.56</ele><time>2015-09-26T08:55:41Z</time></trkpt><trkpt lat="46.676369" lon="8.870624"><ele>1445.96</ele><time>2015-09-26T08:55:53Z</time></trkpt><trkpt lat="46.676384" lon="8.870702"><ele>1446.44</ele><time>2015-09-26T08:56:01Z</time></trkpt><trkpt lat="46.676384" lon="8.870748"><ele>1447.40</ele><time>2015-09-26T08:56:04Z</time></trkpt><trkpt lat="46.676376" lon="8.870788"><ele>1447.40</ele><time>2015-09-26T08:56:07Z</time></trkpt><trkpt lat="46.676403" lon="8.870909"><ele>1449.32</ele><time>2015-09-26T08:56:20Z</time></trkpt><trkpt lat="46.676422" lon="8.870956"><ele>1450.29</ele><time>2015-09-26T08:56:26Z</time></trkpt><trkpt lat="46.676426" lon="8.870999"><ele>1452.21</ele><time>2015-09-26T08:56:37Z</time></trkpt><trkpt lat="46.676426" lon="8.871000"><ele>1454.13</ele><time>2015-09-26T08:56:49Z</time></trkpt><trkpt lat="46.676441" lon="8.871106"><ele>1456.05</ele><time>2015-09-26T08:57:05Z</time></trkpt><trkpt lat="46.676437" lon="8.871122"><ele>1457.98</ele><time>2015-09-26T08:57:15Z</time></trkpt><trkpt lat="46.676426" lon="8.871140"><ele>1458.46</ele><time>2015-09-26T08:57:17Z</time></trkpt><trkpt lat="46.676418" lon="8.871169"><ele>1460.38</ele><time>2015-09-26T08:57:31Z</time></trkpt><trkpt lat="46.676411" lon="8.871235"><ele>1462.30</ele><time>2015-09-26T08:57:40Z</time></trkpt><trkpt lat="46.676411" lon="8.871235"><ele>1462.30</ele><time>2015-09-26T08:57:58Z</time></trkpt><trkpt lat="46.676418" lon="8.871290"><ele>1464.71</ele><time>2015-09-26T08:58:13Z</time></trkpt><trkpt lat="46.676426" lon="8.871342"><ele>1468.07</ele><time>2015-09-26T08:58:26Z</time></trkpt><trkpt lat="46.676411" lon="8.871426"><ele>1469.51</ele><time>2015-09-26T08:58:36Z</time></trkpt><trkpt lat="46.676411" lon="8.871493"><ele>1471.92</ele><time>2015-09-26T08:58:49Z</time></trkpt><trkpt lat="46.676414" lon="8.871531"><ele>1474.80</ele><time>2015-09-26T08:59:01Z</time></trkpt><trkpt lat="46.676399" lon="8.871577"><ele>1475.76</ele><time>2015-09-26T08:59:12Z</time></trkpt><trkpt lat="46.676388" lon="8.871674"><ele>1479.13</ele><time>2015-09-26T08:59:26Z</time></trkpt><trkpt lat="46.676392" lon="8.871770"><ele>1480.09</ele><time>2015-09-26T08:59:37Z</time></trkpt><trkpt lat="46.676414" lon="8.871863"><ele>1482.97</ele><time>2015-09-26T08:59:51Z</time></trkpt><trkpt lat="46.676453" lon="8.871941"><ele>1484.41</ele><time>2015-09-26T09:00:02Z</time></trkpt><trkpt lat="46.676453" lon="8.872010"><ele>1486.82</ele><time>2015-09-26T09:00:17Z</time></trkpt><trkpt lat="46.676495" lon="8.872081"><ele>1488.26</ele><time>2015-09-26T09:00:29Z</time></trkpt><trkpt lat="46.676487" lon="8.872082"><ele>1488.26</ele><time>2015-09-26T09:00:44Z</time></trkpt><trkpt lat="46.676479" lon="8.872116"><ele>1489.70</ele><time>2015-09-26T09:01:04Z</time></trkpt><trkpt lat="46.676483" lon="8.872140"><ele>1490.66</ele><time>2015-09-26T09:01:08Z</time></trkpt><trkpt lat="46.676498" lon="8.872199"><ele>1492.58</ele><time>2015-09-26T09:01:20Z</time></trkpt><trkpt lat="46.676537" lon="8.872336"><ele>1494.51</ele><time>2015-09-26T09:01:35Z</time></trkpt><trkpt lat="46.676567" lon="8.872405"><ele>1496.91</ele><time>2015-09-26T09:01:47Z</time></trkpt><trkpt lat="46.676563" lon="8.872428"><ele>1497.39</ele><time>2015-09-26T09:02:01Z</time></trkpt><trkpt lat="46.676567" lon="8.872453"><ele>1497.87</ele><time>2015-09-26T09:02:22Z</time></trkpt><trkpt lat="46.676594" lon="8.872513"><ele>1500.27</ele><time>2015-09-26T09:02:35Z</time></trkpt><trkpt lat="46.676609" lon="8.872577"><ele>1501.72</ele><time>2015-09-26T09:02:46Z</time></trkpt><trkpt lat="46.676620" lon="8.872648"><ele>1504.12</ele><time>2015-09-26T09:02:57Z</time></trkpt><trkpt lat="46.676640" lon="8.872713"><ele>1506.04</ele><time>2015-09-26T09:03:07Z</time></trkpt><trkpt lat="46.676666" lon="8.872761"><ele>1507.97</ele><time>2015-09-26T09:03:19Z</time></trkpt><trkpt lat="46.676693" lon="8.872850"><ele>1509.89</ele><time>2015-09-26T09:03:33Z</time></trkpt><trkpt lat="46.676720" lon="8.872931"><ele>1512.29</ele><time>2015-09-26T09:03:46Z</time></trkpt><trkpt lat="46.676712" lon="8.872995"><ele>1514.21</ele><time>2015-09-26T09:04:00Z</time></trkpt><trkpt lat="46.676727" lon="8.873045"><ele>1516.62</ele><time>2015-09-26T09:04:12Z</time></trkpt><trkpt lat="46.676727" lon="8.873045"><ele>1517.10</ele><time>2015-09-26T09:04:37Z</time></trkpt><trkpt lat="46.676731" lon="8.873055"><ele>1518.06</ele><time>2015-09-26T09:04:51Z</time></trkpt><trkpt lat="46.676762" lon="8.873117"><ele>1519.02</ele><time>2015-09-26T09:05:00Z</time></trkpt><trkpt lat="46.676777" lon="8.873130"><ele>1522.39</ele><time>2015-09-26T09:05:13Z</time></trkpt><trkpt lat="46.676800" lon="8.873189"><ele>1524.79</ele><time>2015-09-26T09:05:25Z</time></trkpt><trkpt lat="46.676834" lon="8.873240"><ele>1526.71</ele><time>2015-09-26T09:05:36Z</time></trkpt><trkpt lat="46.676842" lon="8.873247"><ele>1527.67</ele><time>2015-09-26T09:05:40Z</time></trkpt><trkpt lat="46.676857" lon="8.873285"><ele>1529.11</ele><time>2015-09-26T09:05:51Z</time></trkpt><trkpt lat="46.676868" lon="8.873300"><ele>1530.08</ele><time>2015-09-26T09:06:04Z</time></trkpt><trkpt lat="46.676872" lon="8.873315"><ele>1531.52</ele><time>2015-09-26T09:06:26Z</time></trkpt><trkpt lat="46.676926" lon="8.873367"><ele>1533.92</ele><time>2015-09-26T09:06:41Z</time></trkpt><trkpt lat="46.676949" lon="8.873420"><ele>1536.32</ele><time>2015-09-26T09:06:53Z</time></trkpt><trkpt lat="46.676987" lon="8.873474"><ele>1537.29</ele><time>2015-09-26T09:07:06Z</time></trkpt><trkpt lat="46.677010" lon="8.873532"><ele>1539.21</ele><time>2015-09-26T09:07:18Z</time></trkpt><trkpt lat="46.677032" lon="8.873587"><ele>1540.17</ele><time>2015-09-26T09:07:31Z</time></trkpt><trkpt lat="46.677017" lon="8.873625"><ele>1543.05</ele><time>2015-09-26T09:07:44Z</time></trkpt><trkpt lat="46.677025" lon="8.873623"><ele>1544.01</ele><time>2015-09-26T09:07:57Z</time></trkpt><trkpt lat="46.677017" lon="8.873647"><ele>1544.98</ele><time>2015-09-26T09:08:12Z</time></trkpt><trkpt lat="46.677017" lon="8.873647"><ele>1545.46</ele><time>2015-09-26T09:08:34Z</time></trkpt><trkpt lat="46.677006" lon="8.873663"><ele>1545.46</ele><time>2015-09-26T09:08:57Z</time></trkpt><trkpt lat="46.677032" lon="8.873730"><ele>1548.82</ele><time>2015-09-26T09:09:13Z</time></trkpt><trkpt lat="46.677017" lon="8.873809"><ele>1549.78</ele><time>2015-09-26T09:09:26Z</time></trkpt><trkpt lat="46.677044" lon="8.873884"><ele>1552.67</ele><time>2015-09-26T09:09:38Z</time></trkpt><trkpt lat="46.677086" lon="8.873942"><ele>1554.11</ele><time>2015-09-26T09:09:49Z</time></trkpt><trkpt lat="46.677128" lon="8.874025"><ele>1556.03</ele><time>2015-09-26T09:09:59Z</time></trkpt><trkpt lat="46.677135" lon="8.874102"><ele>1557.47</ele><time>2015-09-26T09:10:11Z</time></trkpt><trkpt lat="46.677158" lon="8.874207"><ele>1559.40</ele><time>2015-09-26T09:10:24Z</time></trkpt><trkpt lat="46.677158" lon="8.874214"><ele>1559.88</ele><time>2015-09-26T09:10:53Z</time></trkpt><trkpt lat="46.677177" lon="8.874243"><ele>1561.32</ele><time>2015-09-26T09:11:10Z</time></trkpt><trkpt lat="46.677166" lon="8.874317"><ele>1563.72</ele><time>2015-09-26T09:11:23Z</time></trkpt><trkpt lat="46.677200" lon="8.874374"><ele>1565.64</ele><time>2015-09-26T09:11:35Z</time></trkpt><trkpt lat="46.677235" lon="8.874439"><ele>1567.09</ele><time>2015-09-26T09:11:48Z</time></trkpt><trkpt lat="46.677261" lon="8.874463"><ele>1567.57</ele><time>2015-09-26T09:11:58Z</time></trkpt><trkpt lat="46.677273" lon="8.874493"><ele>1569.49</ele><time>2015-09-26T09:12:19Z</time></trkpt><trkpt lat="46.677322" lon="8.874534"><ele>1571.89</ele><time>2015-09-26T09:12:31Z</time></trkpt><trkpt lat="46.677353" lon="8.874610"><ele>1574.30</ele><time>2015-09-26T09:12:44Z</time></trkpt><trkpt lat="46.677364" lon="8.874642"><ele>1575.74</ele><time>2015-09-26T09:12:55Z</time></trkpt><trkpt lat="46.677345" lon="8.874648"><ele>1577.66</ele><time>2015-09-26T09:13:08Z</time></trkpt><trkpt lat="46.677361" lon="8.874690"><ele>1579.58</ele><time>2015-09-26T09:13:21Z</time></trkpt><trkpt lat="46.677361" lon="8.874781"><ele>1581.99</ele><time>2015-09-26T09:13:36Z</time></trkpt><trkpt lat="46.677368" lon="8.874866"><ele>1584.39</ele><time>2015-09-26T09:13:49Z</time></trkpt><trkpt lat="46.677368" lon="8.874904"><ele>1586.31</ele><time>2015-09-26T09:14:04Z</time></trkpt><trkpt lat="46.677441" lon="8.874962"><ele>1588.24</ele><time>2015-09-26T09:14:16Z</time></trkpt><trkpt lat="46.677490" lon="8.875074"><ele>1589.20</ele><time>2015-09-26T09:14:27Z</time></trkpt><trkpt lat="46.677528" lon="8.875176"><ele>1592.08</ele><time>2015-09-26T09:14:40Z</time></trkpt><trkpt lat="46.677525" lon="8.875208"><ele>1593.04</ele><time>2015-09-26T09:14:51Z</time></trkpt><trkpt lat="46.677563" lon="8.875245"><ele>1595.93</ele><time>2015-09-26T09:15:05Z</time></trkpt><trkpt lat="46.677597" lon="8.875296"><ele>1595.93</ele><time>2015-09-26T09:15:16Z</time></trkpt><trkpt lat="46.677597" lon="8.875296"><ele>1596.89</ele><time>2015-09-26T09:15:39Z</time></trkpt><trkpt lat="46.677612" lon="8.875355"><ele>1598.81</ele><time>2015-09-26T09:15:49Z</time></trkpt><trkpt lat="46.677631" lon="8.875409"><ele>1601.21</ele><time>2015-09-26T09:16:03Z</time></trkpt><trkpt lat="46.677666" lon="8.875529"><ele>1602.66</ele><time>2015-09-26T09:16:17Z</time></trkpt><trkpt lat="46.677670" lon="8.875593"><ele>1604.10</ele><time>2015-09-26T09:16:29Z</time></trkpt><trkpt lat="46.677711" lon="8.875681"><ele>1606.98</ele><time>2015-09-26T09:16:42Z</time></trkpt><trkpt lat="46.677788" lon="8.875821"><ele>1608.90</ele><time>2015-09-26T09:16:56Z</time></trkpt><trkpt lat="46.677845" lon="8.875984"><ele>1610.83</ele><time>2015-09-26T09:17:13Z</time></trkpt><trkpt lat="46.677883" lon="8.876084"><ele>1612.75</ele><time>2015-09-26T09:17:25Z</time></trkpt><trkpt lat="46.677906" lon="8.876159"><ele>1614.19</ele><time>2015-09-26T09:17:38Z</time></trkpt><trkpt lat="46.677898" lon="8.876193"><ele>1615.63</ele><time>2015-09-26T09:17:51Z</time></trkpt><trkpt lat="46.677898" lon="8.876196"><ele>1616.11</ele><time>2015-09-26T09:18:08Z</time></trkpt><trkpt lat="46.677891" lon="8.876204"><ele>1615.63</ele><time>2015-09-26T09:18:22Z</time></trkpt><trkpt lat="46.677887" lon="8.876221"><ele>1616.59</ele><time>2015-09-26T09:18:38Z</time></trkpt><trkpt lat="46.677887" lon="8.876262"><ele>1618.52</ele><time>2015-09-26T09:19:01Z</time></trkpt><trkpt lat="46.677902" lon="8.876346"><ele>1621.40</ele><time>2015-09-26T09:19:15Z</time></trkpt><trkpt lat="46.677902" lon="8.876374"><ele>1622.36</ele><time>2015-09-26T09:19:30Z</time></trkpt><trkpt lat="46.677925" lon="8.876452"><ele>1624.28</ele><time>2015-09-26T09:19:45Z</time></trkpt><trkpt lat="46.677921" lon="8.876586"><ele>1626.21</ele><time>2015-09-26T09:20:02Z</time></trkpt><trkpt lat="46.677925" lon="8.876657"><ele>1628.61</ele><time>2015-09-26T09:20:14Z</time></trkpt><trkpt lat="46.677929" lon="8.876721"><ele>1631.01</ele><time>2015-09-26T09:20:28Z</time></trkpt><trkpt lat="46.677917" lon="8.876756"><ele>1633.42</ele><time>2015-09-26T09:20:42Z</time></trkpt><trkpt lat="46.677910" lon="8.876763"><ele>1634.86</ele><time>2015-09-26T09:20:57Z</time></trkpt><trkpt lat="46.677910" lon="8.876763"><ele>1634.86</ele><time>2015-09-26T09:21:20Z</time></trkpt><trkpt lat="46.677902" lon="8.876761"><ele>1634.86</ele><time>2015-09-26T09:21:43Z</time></trkpt><trkpt lat="46.677906" lon="8.876763"><ele>1635.34</ele><time>2015-09-26T09:22:11Z</time></trkpt><trkpt lat="46.677891" lon="8.876815"><ele>1637.26</ele><time>2015-09-26T09:22:27Z</time></trkpt><trkpt lat="46.677872" lon="8.876891"><ele>1639.19</ele><time>2015-09-26T09:22:35Z</time></trkpt><trkpt lat="46.677860" lon="8.876908"><ele>1641.59</ele><time>2015-09-26T09:22:48Z</time></trkpt><trkpt lat="46.677864" lon="8.876942"><ele>1642.07</ele><time>2015-09-26T09:23:09Z</time></trkpt><trkpt lat="46.677879" lon="8.876973"><ele>1643.03</ele><time>2015-09-26T09:23:28Z</time></trkpt><trkpt lat="46.677876" lon="8.877042"><ele>1645.91</ele><time>2015-09-26T09:23:43Z</time></trkpt><trkpt lat="46.677876" lon="8.877065"><ele>1646.40</ele><time>2015-09-26T09:23:58Z</time></trkpt><trkpt lat="46.677876" lon="8.877139"><ele>1648.80</ele><time>2015-09-26T09:24:10Z</time></trkpt><trkpt lat="46.677887" lon="8.877206"><ele>1651.20</ele><time>2015-09-26T09:24:23Z</time></trkpt><trkpt lat="46.677887" lon="8.877319"><ele>1653.12</ele><time>2015-09-26T09:24:37Z</time></trkpt><trkpt lat="46.677887" lon="8.877362"><ele>1655.05</ele><time>2015-09-26T09:24:48Z</time></trkpt><trkpt lat="46.677883" lon="8.877480"><ele>1657.45</ele><time>2015-09-26T09:25:02Z</time></trkpt><trkpt lat="46.677902" lon="8.877587"><ele>1657.45</ele><time>2015-09-26T09:25:10Z</time></trkpt><trkpt lat="46.677917" lon="8.877705"><ele>1658.89</ele><time>2015-09-26T09:25:22Z</time></trkpt><trkpt lat="46.677929" lon="8.877775"><ele>1660.81</ele><time>2015-09-26T09:25:34Z</time></trkpt><trkpt lat="46.677948" lon="8.877874"><ele>1663.22</ele><time>2015-09-26T09:25:48Z</time></trkpt><trkpt lat="46.677967" lon="8.877939"><ele>1665.14</ele><time>2015-09-26T09:26:01Z</time></trkpt><trkpt lat="46.677975" lon="8.877972"><ele>1667.54</ele><time>2015-09-26T09:26:16Z</time></trkpt><trkpt lat="46.677986" lon="8.878015"><ele>1668.02</ele><time>2015-09-26T09:26:21Z</time></trkpt><trkpt lat="46.678047" lon="8.878087"><ele>1668.99</ele><time>2015-09-26T09:26:33Z</time></trkpt><trkpt lat="46.678097" lon="8.878189"><ele>1670.91</ele><time>2015-09-26T09:26:45Z</time></trkpt><trkpt lat="46.678143" lon="8.878260"><ele>1672.35</ele><time>2015-09-26T09:26:55Z</time></trkpt><trkpt lat="46.678192" lon="8.878341"><ele>1673.31</ele><time>2015-09-26T09:27:06Z</time></trkpt><trkpt lat="46.678242" lon="8.878434"><ele>1674.75</ele><time>2015-09-26T09:27:19Z</time></trkpt><trkpt lat="46.678295" lon="8.878462"><ele>1676.20</ele><time>2015-09-26T09:27:30Z</time></trkpt><trkpt lat="46.678368" lon="8.878516"><ele>1678.60</ele><time>2015-09-26T09:27:43Z</time></trkpt><trkpt lat="46.678383" lon="8.878542"><ele>1678.60</ele><time>2015-09-26T09:27:46Z</time></trkpt><trkpt lat="46.678432" lon="8.878658"><ele>1679.56</ele><time>2015-09-26T09:27:58Z</time></trkpt><trkpt lat="46.678440" lon="8.878674"><ele>1679.56</ele><time>2015-09-26T09:28:11Z</time></trkpt><trkpt lat="46.678440" lon="8.878702"><ele>1681.96</ele><time>2015-09-26T09:28:19Z</time></trkpt><trkpt lat="46.678394" lon="8.878759"><ele>1682.93</ele><time>2015-09-26T09:28:30Z</time></trkpt><trkpt lat="46.678356" lon="8.878828"><ele>1683.89</ele><time>2015-09-26T09:28:36Z</time></trkpt><trkpt lat="46.678322" lon="8.878868"><ele>1682.93</ele><time>2015-09-26T09:28:42Z</time></trkpt><trkpt lat="46.678303" lon="8.878951"><ele>1683.89</ele><time>2015-09-26T09:28:53Z</time></trkpt><trkpt lat="46.678356" lon="8.878979"><ele>1686.77</ele><time>2015-09-26T09:29:05Z</time></trkpt><trkpt lat="46.678379" lon="8.878972"><ele>1687.25</ele><time>2015-09-26T09:29:09Z</time></trkpt><trkpt lat="46.678425" lon="8.878952"><ele>1689.17</ele><time>2015-09-26T09:29:21Z</time></trkpt><trkpt lat="46.678471" lon="8.878935"><ele>1690.14</ele><time>2015-09-26T09:29:32Z</time></trkpt><trkpt lat="46.678528" lon="8.878969"><ele>1691.58</ele><time>2015-09-26T09:29:44Z</time></trkpt><trkpt lat="46.678497" lon="8.879022"><ele>1693.50</ele><time>2015-09-26T09:29:57Z</time></trkpt><trkpt lat="46.678474" lon="8.879081"><ele>1695.42</ele><time>2015-09-26T09:30:06Z</time></trkpt><trkpt lat="46.678493" lon="8.879162"><ele>1698.31</ele><time>2015-09-26T09:30:20Z</time></trkpt><trkpt lat="46.678471" lon="8.879222"><ele>1700.71</ele><time>2015-09-26T09:30:35Z</time></trkpt><trkpt lat="46.678486" lon="8.879255"><ele>1702.63</ele><time>2015-09-26T09:30:46Z</time></trkpt><trkpt lat="46.678516" lon="8.879274"><ele>1703.59</ele><time>2015-09-26T09:31:02Z</time></trkpt><trkpt lat="46.678570" lon="8.879347"><ele>1705.04</ele><time>2015-09-26T09:31:19Z</time></trkpt><trkpt lat="46.678619" lon="8.879470"><ele>1705.52</ele><time>2015-09-26T09:31:31Z</time></trkpt><trkpt lat="46.678631" lon="8.879481"><ele>1705.52</ele><time>2015-09-26T09:31:54Z</time></trkpt><trkpt lat="46.678631" lon="8.879482"><ele>1706.00</ele><time>2015-09-26T09:32:20Z</time></trkpt><trkpt lat="46.678638" lon="8.879488"><ele>1706.96</ele><time>2015-09-26T09:32:38Z</time></trkpt><trkpt lat="46.678761" lon="8.879661"><ele>1707.92</ele><time>2015-09-26T09:32:49Z</time></trkpt><trkpt lat="46.678799" lon="8.879711"><ele>1709.84</ele><time>2015-09-26T09:33:01Z</time></trkpt><trkpt lat="46.678825" lon="8.879746"><ele>1712.25</ele><time>2015-09-26T09:33:14Z</time></trkpt><trkpt lat="46.678860" lon="8.879772"><ele>1714.65</ele><time>2015-09-26T09:33:25Z</time></trkpt><trkpt lat="46.678844" lon="8.879832"><ele>1716.09</ele><time>2015-09-26T09:33:38Z</time></trkpt><trkpt lat="46.678829" lon="8.879890"><ele>1717.53</ele><time>2015-09-26T09:33:50Z</time></trkpt><trkpt lat="46.678822" lon="8.879964"><ele>1719.46</ele><time>2015-09-26T09:34:00Z</time></trkpt><trkpt lat="46.678822" lon="8.880007"><ele>1721.38</ele><time>2015-09-26T09:34:16Z</time></trkpt><trkpt lat="46.678864" lon="8.880090"><ele>1723.78</ele><time>2015-09-26T09:34:29Z</time></trkpt><trkpt lat="46.678909" lon="8.880123"><ele>1726.18</ele><time>2015-09-26T09:34:43Z</time></trkpt><trkpt lat="46.678963" lon="8.880150"><ele>1726.67</ele><time>2015-09-26T09:34:49Z</time></trkpt><trkpt lat="46.679035" lon="8.880205"><ele>1728.59</ele><time>2015-09-26T09:35:00Z</time></trkpt><trkpt lat="46.679028" lon="8.880276"><ele>1729.55</ele><time>2015-09-26T09:35:09Z</time></trkpt><trkpt lat="46.678982" lon="8.880304"><ele>1730.99</ele><time>2015-09-26T09:35:21Z</time></trkpt><trkpt lat="46.678959" lon="8.880335"><ele>1732.43</ele><time>2015-09-26T09:35:34Z</time></trkpt><trkpt lat="46.678959" lon="8.880335"><ele>1731.95</ele><time>2015-09-26T09:36:00Z</time></trkpt><trkpt lat="46.678955" lon="8.880354"><ele>1733.88</ele><time>2015-09-26T09:36:14Z</time></trkpt><trkpt lat="46.678982" lon="8.880363"><ele>1734.36</ele><time>2015-09-26T09:36:35Z</time></trkpt><trkpt lat="46.679016" lon="8.880398"><ele>1735.32</ele><time>2015-09-26T09:36:43Z</time></trkpt><trkpt lat="46.679047" lon="8.880454"><ele>1737.72</ele><time>2015-09-26T09:36:54Z</time></trkpt><trkpt lat="46.679054" lon="8.880495"><ele>1739.16</ele><time>2015-09-26T09:37:06Z</time></trkpt><trkpt lat="46.679062" lon="8.880493"><ele>1739.64</ele><time>2015-09-26T09:37:08Z</time></trkpt><trkpt lat="46.679104" lon="8.880555"><ele>1741.57</ele><time>2015-09-26T09:37:18Z</time></trkpt><trkpt lat="46.679127" lon="8.880665"><ele>1742.53</ele><time>2015-09-26T09:37:31Z</time></trkpt><trkpt lat="46.679188" lon="8.880773"><ele>1743.49</ele><time>2015-09-26T09:37:46Z</time></trkpt><trkpt lat="46.679207" lon="8.880812"><ele>1745.89</ele><time>2015-09-26T09:37:59Z</time></trkpt><trkpt lat="46.679245" lon="8.880888"><ele>1747.81</ele><time>2015-09-26T09:38:11Z</time></trkpt><trkpt lat="46.679272" lon="8.880946"><ele>1749.74</ele><time>2015-09-26T09:38:22Z</time></trkpt><trkpt lat="46.679287" lon="8.881042"><ele>1751.18</ele><time>2015-09-26T09:38:35Z</time></trkpt><trkpt lat="46.679306" lon="8.881093"><ele>1752.14</ele><time>2015-09-26T09:38:55Z</time></trkpt><trkpt lat="46.679340" lon="8.881186"><ele>1753.58</ele><time>2015-09-26T09:39:08Z</time></trkpt><trkpt lat="46.679340" lon="8.881212"><ele>1755.99</ele><time>2015-09-26T09:39:18Z</time></trkpt><trkpt lat="46.679375" lon="8.881410"><ele>1757.91</ele><time>2015-09-26T09:39:31Z</time></trkpt><trkpt lat="46.679375" lon="8.881508"><ele>1759.35</ele><time>2015-09-26T09:39:48Z</time></trkpt><trkpt lat="46.679340" lon="8.881603"><ele>1761.27</ele><time>2015-09-26T09:40:00Z</time></trkpt><trkpt lat="46.679356" lon="8.881701"><ele>1763.68</ele><time>2015-09-26T09:40:15Z</time></trkpt><trkpt lat="46.679321" lon="8.881803"><ele>1765.12</ele><time>2015-09-26T09:40:28Z</time></trkpt><trkpt lat="46.679306" lon="8.881832"><ele>1766.56</ele><time>2015-09-26T09:40:32Z</time></trkpt><trkpt lat="46.679256" lon="8.881954"><ele>1767.52</ele><time>2015-09-26T09:40:44Z</time></trkpt><trkpt lat="46.679253" lon="8.881982"><ele>1768.48</ele><time>2015-09-26T09:40:48Z</time></trkpt><trkpt lat="46.679237" lon="8.882012"><ele>1770.41</ele><time>2015-09-26T09:40:59Z</time></trkpt><trkpt lat="46.679214" lon="8.882091"><ele>1772.33</ele><time>2015-09-26T09:41:15Z</time></trkpt><trkpt lat="46.679214" lon="8.882092"><ele>1771.85</ele><time>2015-09-26T09:41:46Z</time></trkpt><trkpt lat="46.679237" lon="8.882119"><ele>1772.81</ele><time>2015-09-26T09:42:04Z</time></trkpt><trkpt lat="46.679253" lon="8.882168"><ele>1775.21</ele><time>2015-09-26T09:42:18Z</time></trkpt><trkpt lat="46.679310" lon="8.882228"><ele>1776.65</ele><time>2015-09-26T09:42:32Z</time></trkpt><trkpt lat="46.679333" lon="8.882261"><ele>1779.06</ele><time>2015-09-26T09:42:43Z</time></trkpt><trkpt lat="46.679371" lon="8.882272"><ele>1781.46</ele><time>2015-09-26T09:42:53Z</time></trkpt><trkpt lat="46.679390" lon="8.882298"><ele>1782.90</ele><time>2015-09-26T09:43:07Z</time></trkpt><trkpt lat="46.679424" lon="8.882422"><ele>1786.75</ele><time>2015-09-26T09:43:19Z</time></trkpt><trkpt lat="46.679432" lon="8.882461"><ele>1787.71</ele><time>2015-09-26T09:43:32Z</time></trkpt><trkpt lat="46.679447" lon="8.882537"><ele>1790.11</ele><time>2015-09-26T09:43:47Z</time></trkpt><trkpt lat="46.679459" lon="8.882615"><ele>1793.00</ele><time>2015-09-26T09:44:01Z</time></trkpt><trkpt lat="46.679466" lon="8.882687"><ele>1793.96</ele><time>2015-09-26T09:44:13Z</time></trkpt><trkpt lat="46.679466" lon="8.882702"><ele>1793.96</ele><time>2015-09-26T09:44:34Z</time></trkpt><trkpt lat="46.679466" lon="8.882702"><ele>1794.44</ele><time>2015-09-26T09:44:52Z</time></trkpt><trkpt lat="46.679474" lon="8.882713"><ele>1794.44</ele><time>2015-09-26T09:45:14Z</time></trkpt><trkpt lat="46.679508" lon="8.882778"><ele>1796.84</ele><time>2015-09-26T09:45:27Z</time></trkpt><trkpt lat="46.679523" lon="8.882861"><ele>1798.76</ele><time>2015-09-26T09:45:40Z</time></trkpt><trkpt lat="46.679523" lon="8.882936"><ele>1801.17</ele><time>2015-09-26T09:45:55Z</time></trkpt><trkpt lat="46.679489" lon="8.883076"><ele>1803.57</ele><time>2015-09-26T09:46:10Z</time></trkpt><trkpt lat="46.679489" lon="8.883119"><ele>1805.49</ele><time>2015-09-26T09:46:23Z</time></trkpt><trkpt lat="46.679504" lon="8.883174"><ele>1806.94</ele><time>2015-09-26T09:46:35Z</time></trkpt><trkpt lat="46.679504" lon="8.883208"><ele>1807.42</ele><time>2015-09-26T09:46:48Z</time></trkpt><trkpt lat="46.679512" lon="8.883265"><ele>1809.82</ele><time>2015-09-26T09:47:01Z</time></trkpt><trkpt lat="46.679577" lon="8.883369"><ele>1811.74</ele><time>2015-09-26T09:47:12Z</time></trkpt><trkpt lat="46.679588" lon="8.883427"><ele>1813.66</ele><time>2015-09-26T09:47:23Z</time></trkpt><trkpt lat="46.679581" lon="8.883522"><ele>1815.59</ele><time>2015-09-26T09:47:37Z</time></trkpt><trkpt lat="46.679588" lon="8.883525"><ele>1817.03</ele><time>2015-09-26T09:47:49Z</time></trkpt><trkpt lat="46.679585" lon="8.883532"><ele>1819.43</ele><time>2015-09-26T09:48:04Z</time></trkpt><trkpt lat="46.679592" lon="8.883578"><ele>1820.87</ele><time>2015-09-26T09:48:16Z</time></trkpt><trkpt lat="46.679607" lon="8.883707"><ele>1822.80</ele><time>2015-09-26T09:48:29Z</time></trkpt><trkpt lat="46.679649" lon="8.883876"><ele>1824.72</ele><time>2015-09-26T09:48:43Z</time></trkpt><trkpt lat="46.679668" lon="8.883906"><ele>1827.12</ele><time>2015-09-26T09:48:55Z</time></trkpt><trkpt lat="46.679680" lon="8.883914"><ele>1827.60</ele><time>2015-09-26T09:49:10Z</time></trkpt><trkpt lat="46.679680" lon="8.883914"><ele>1829.53</ele><time>2015-09-26T09:49:19Z</time></trkpt><trkpt lat="46.679688" lon="8.883986"><ele>1830.97</ele><time>2015-09-26T09:49:30Z</time></trkpt><trkpt lat="46.679688" lon="8.884032"><ele>1831.93</ele><time>2015-09-26T09:49:32Z</time></trkpt><trkpt lat="46.679691" lon="8.884082"><ele>1831.93</ele><time>2015-09-26T09:49:46Z</time></trkpt><trkpt lat="46.679718" lon="8.884134"><ele>1834.33</ele><time>2015-09-26T09:49:57Z</time></trkpt><trkpt lat="46.679775" lon="8.884231"><ele>1836.26</ele><time>2015-09-26T09:50:12Z</time></trkpt><trkpt lat="46.679806" lon="8.884274"><ele>1837.22</ele><time>2015-09-26T09:50:18Z</time></trkpt><trkpt lat="46.679821" lon="8.884311"><ele>1837.70</ele><time>2015-09-26T09:50:30Z</time></trkpt><trkpt lat="46.679871" lon="8.884396"><ele>1839.62</ele><time>2015-09-26T09:50:45Z</time></trkpt><trkpt lat="46.679871" lon="8.884415"><ele>1838.66</ele><time>2015-09-26T09:50:47Z</time></trkpt><trkpt lat="46.679867" lon="8.884460"><ele>1840.10</ele><time>2015-09-26T09:51:02Z</time></trkpt><trkpt lat="46.679871" lon="8.884461"><ele>1839.62</ele><time>2015-09-26T09:51:25Z</time></trkpt><trkpt lat="46.679867" lon="8.884582"><ele>1839.62</ele><time>2015-09-26T09:51:36Z</time></trkpt><trkpt lat="46.679901" lon="8.884709"><ele>1841.54</ele><time>2015-09-26T09:51:49Z</time></trkpt><trkpt lat="46.679935" lon="8.884814"><ele>1843.47</ele><time>2015-09-26T09:52:00Z</time></trkpt><trkpt lat="46.679962" lon="8.884821"><ele>1843.47</ele><time>2015-09-26T09:52:02Z</time></trkpt><trkpt lat="46.680077" lon="8.884841"><ele>1843.95</ele><time>2015-09-26T09:52:14Z</time></trkpt><trkpt lat="46.680111" lon="8.884867"><ele>1843.47</ele><time>2015-09-26T09:52:18Z</time></trkpt><trkpt lat="46.680141" lon="8.884879"><ele>1843.47</ele><time>2015-09-26T09:52:21Z</time></trkpt><trkpt lat="46.680164" lon="8.884896"><ele>1844.43</ele><time>2015-09-26T09:52:24Z</time></trkpt><trkpt lat="46.680210" lon="8.884903"><ele>1845.87</ele><time>2015-09-26T09:52:29Z</time></trkpt><trkpt lat="46.680271" lon="8.884925"><ele>1845.87</ele><time>2015-09-26T09:52:36Z</time></trkpt><trkpt lat="46.680286" lon="8.884948"><ele>1846.35</ele><time>2015-09-26T09:52:51Z</time></trkpt><trkpt lat="46.680332" lon="8.884944"><ele>1845.87</ele><time>2015-09-26T09:53:09Z</time></trkpt><trkpt lat="46.680382" lon="8.885049"><ele>1847.31</ele><time>2015-09-26T09:53:22Z</time></trkpt><trkpt lat="46.680386" lon="8.885108"><ele>1849.23</ele><time>2015-09-26T09:53:31Z</time></trkpt><trkpt lat="46.680370" lon="8.885143"><ele>1849.71</ele><time>2015-09-26T09:53:37Z</time></trkpt><trkpt lat="46.680397" lon="8.885223"><ele>1851.16</ele><time>2015-09-26T09:53:47Z</time></trkpt><trkpt lat="46.680462" lon="8.885288"><ele>1853.08</ele><time>2015-09-26T09:53:58Z</time></trkpt><trkpt lat="46.680523" lon="8.885395"><ele>1852.12</ele><time>2015-09-26T09:54:11Z</time></trkpt><trkpt lat="46.680531" lon="8.885419"><ele>1852.12</ele><time>2015-09-26T09:54:31Z</time></trkpt><trkpt lat="46.680534" lon="8.885414"><ele>1852.60</ele><time>2015-09-26T09:54:57Z</time></trkpt><trkpt lat="46.680580" lon="8.885529"><ele>1852.12</ele><time>2015-09-26T09:55:08Z</time></trkpt><trkpt lat="46.680584" lon="8.885558"><ele>1852.60</ele><time>2015-09-26T09:55:10Z</time></trkpt><trkpt lat="46.680672" lon="8.885709"><ele>1852.12</ele><time>2015-09-26T09:55:25Z</time></trkpt><trkpt lat="46.680691" lon="8.885730"><ele>1851.64</ele><time>2015-09-26T09:55:28Z</time></trkpt><trkpt lat="46.680729" lon="8.885808"><ele>1851.16</ele><time>2015-09-26T09:55:35Z</time></trkpt><trkpt lat="46.680801" lon="8.885967"><ele>1848.27</ele><time>2015-09-26T09:55:49Z</time></trkpt><trkpt lat="46.680862" lon="8.886013"><ele>1847.79</ele><time>2015-09-26T09:56:03Z</time></trkpt><trkpt lat="46.680885" lon="8.886131"><ele>1847.31</ele><time>2015-09-26T09:56:13Z</time></trkpt><trkpt lat="46.680878" lon="8.886259"><ele>1846.35</ele><time>2015-09-26T09:56:26Z</time></trkpt><trkpt lat="46.680870" lon="8.886324"><ele>1846.35</ele><time>2015-09-26T09:56:30Z</time></trkpt><trkpt lat="46.680847" lon="8.886395"><ele>1846.35</ele><time>2015-09-26T09:56:46Z</time></trkpt><trkpt lat="46.680855" lon="8.886403"><ele>1845.39</ele><time>2015-09-26T09:57:08Z</time></trkpt><trkpt lat="46.680840" lon="8.886454"><ele>1844.91</ele><time>2015-09-26T09:57:27Z</time></trkpt><trkpt lat="46.680836" lon="8.886467"><ele>1845.39</ele><time>2015-09-26T09:57:31Z</time></trkpt><trkpt lat="46.680820" lon="8.886499"><ele>1843.95</ele><time>2015-09-26T09:57:40Z</time></trkpt><trkpt lat="46.680798" lon="8.886550"><ele>1844.43</ele><time>2015-09-26T09:57:47Z</time></trkpt><trkpt lat="46.680801" lon="8.886585"><ele>1846.35</ele><time>2015-09-26T09:57:57Z</time></trkpt><trkpt lat="46.680817" lon="8.886619"><ele>1846.83</ele><time>2015-09-26T09:58:00Z</time></trkpt><trkpt lat="46.680809" lon="8.886639"><ele>1848.27</ele><time>2015-09-26T09:58:03Z</time></trkpt><trkpt lat="46.680824" lon="8.886666"><ele>1849.23</ele><time>2015-09-26T09:58:15Z</time></trkpt><trkpt lat="46.680817" lon="8.886700"><ele>1850.19</ele><time>2015-09-26T09:58:33Z</time></trkpt><trkpt lat="46.680820" lon="8.886722"><ele>1850.19</ele><time>2015-09-26T09:58:37Z</time></trkpt><trkpt lat="46.680820" lon="8.886773"><ele>1853.56</ele><time>2015-09-26T09:58:49Z</time></trkpt><trkpt lat="46.680832" lon="8.886826"><ele>1854.04</ele><time>2015-09-26T09:58:58Z</time></trkpt><trkpt lat="46.680828" lon="8.886888"><ele>1855.96</ele><time>2015-09-26T09:59:09Z</time></trkpt><trkpt lat="46.680798" lon="8.886938"><ele>1858.37</ele><time>2015-09-26T09:59:22Z</time></trkpt><trkpt lat="46.680759" lon="8.887044"><ele>1861.25</ele><time>2015-09-26T09:59:38Z</time></trkpt><trkpt lat="46.680759" lon="8.887044"><ele>1860.29</ele><time>2015-09-26T09:59:58Z</time></trkpt><trkpt lat="46.680756" lon="8.887045"><ele>1861.25</ele><time>2015-09-26T10:00:17Z</time></trkpt><trkpt lat="46.680756" lon="8.887056"><ele>1863.17</ele><time>2015-09-26T10:00:28Z</time></trkpt><trkpt lat="46.680756" lon="8.887073"><ele>1864.61</ele><time>2015-09-26T10:00:41Z</time></trkpt><trkpt lat="46.680782" lon="8.887143"><ele>1865.58</ele><time>2015-09-26T10:00:54Z</time></trkpt><trkpt lat="46.680809" lon="8.887159"><ele>1867.50</ele><time>2015-09-26T10:01:08Z</time></trkpt><trkpt lat="46.680809" lon="8.887159"><ele>1867.50</ele><time>2015-09-26T10:01:13Z</time></trkpt><trkpt lat="46.680855" lon="8.887195"><ele>1867.98</ele><time>2015-09-26T10:01:28Z</time></trkpt><trkpt lat="46.680855" lon="8.887195"><ele>1867.98</ele><time>2015-09-26T10:01:49Z</time></trkpt><trkpt lat="46.680855" lon="8.887195"><ele>1867.98</ele><time>2015-09-26T10:02:04Z</time></trkpt><trkpt lat="46.680904" lon="8.887207"><ele>1868.46</ele><time>2015-09-26T10:02:10Z</time></trkpt><trkpt lat="46.680958" lon="8.887218"><ele>1870.86</ele><time>2015-09-26T10:02:16Z</time></trkpt><trkpt lat="46.681072" lon="8.887174"><ele>1872.30</ele><time>2015-09-26T10:02:28Z</time></trkpt><trkpt lat="46.681103" lon="8.887152"><ele>1873.75</ele><time>2015-09-26T10:02:35Z</time></trkpt><trkpt lat="46.681141" lon="8.887126"><ele>1874.23</ele><time>2015-09-26T10:02:45Z</time></trkpt><trkpt lat="46.681156" lon="8.887117"><ele>1875.67</ele><time>2015-09-26T10:02:52Z</time></trkpt><trkpt lat="46.681225" lon="8.886993"><ele>1876.15</ele><time>2015-09-26T10:03:00Z</time></trkpt><trkpt lat="46.681244" lon="8.886964"><ele>1875.67</ele><time>2015-09-26T10:03:02Z</time></trkpt><trkpt lat="46.681332" lon="8.886800"><ele>1877.59</ele><time>2015-09-26T10:03:15Z</time></trkpt><trkpt lat="46.681362" lon="8.886661"><ele>1879.03</ele><time>2015-09-26T10:03:27Z</time></trkpt><trkpt lat="46.681362" lon="8.886657"><ele>1878.55</ele><time>2015-09-26T10:03:44Z</time></trkpt><trkpt lat="46.681362" lon="8.886656"><ele>1879.51</ele><time>2015-09-26T10:04:01Z</time></trkpt><trkpt lat="46.681366" lon="8.886642"><ele>1879.51</ele><time>2015-09-26T10:04:10Z</time></trkpt><trkpt lat="46.681389" lon="8.886591"><ele>1879.03</ele><time>2015-09-26T10:04:14Z</time></trkpt><trkpt lat="46.681427" lon="8.886536"><ele>1880.00</ele><time>2015-09-26T10:04:21Z</time></trkpt><trkpt lat="46.681442" lon="8.886482"><ele>1879.51</ele><time>2015-09-26T10:04:25Z</time></trkpt><trkpt lat="46.681499" lon="8.886360"><ele>1880.48</ele><time>2015-09-26T10:04:37Z</time></trkpt><trkpt lat="46.681538" lon="8.886314"><ele>1880.48</ele><time>2015-09-26T10:04:46Z</time></trkpt><trkpt lat="46.681595" lon="8.886369"><ele>1882.88</ele><time>2015-09-26T10:05:00Z</time></trkpt><trkpt lat="46.681610" lon="8.886393"><ele>1882.88</ele><time>2015-09-26T10:05:03Z</time></trkpt><trkpt lat="46.681721" lon="8.886405"><ele>1883.36</ele><time>2015-09-26T10:05:16Z</time></trkpt><trkpt lat="46.681816" lon="8.886451"><ele>1882.40</ele><time>2015-09-26T10:05:28Z</time></trkpt><trkpt lat="46.681828" lon="8.886457"><ele>1881.92</ele><time>2015-09-26T10:05:29Z</time></trkpt><trkpt lat="46.681908" lon="8.886527"><ele>1880.96</ele><time>2015-09-26T10:05:39Z</time></trkpt><trkpt lat="46.681927" lon="8.886535"><ele>1880.96</ele><time>2015-09-26T10:05:56Z</time></trkpt><trkpt lat="46.681938" lon="8.886574"><ele>1881.92</ele><time>2015-09-26T10:06:05Z</time></trkpt><trkpt lat="46.681969" lon="8.886604"><ele>1881.44</ele><time>2015-09-26T10:06:09Z</time></trkpt><trkpt lat="46.681995" lon="8.886659"><ele>1880.96</ele><time>2015-09-26T10:06:17Z</time></trkpt><trkpt lat="46.682045" lon="8.886692"><ele>1881.44</ele><time>2015-09-26T10:06:22Z</time></trkpt><trkpt lat="46.682064" lon="8.886707"><ele>1880.96</ele><time>2015-09-26T10:06:24Z</time></trkpt><trkpt lat="46.682087" lon="8.886742"><ele>1880.48</ele><time>2015-09-26T10:06:37Z</time></trkpt><trkpt lat="46.682133" lon="8.886794"><ele>1881.44</ele><time>2015-09-26T10:06:50Z</time></trkpt><trkpt lat="46.682129" lon="8.886795"><ele>1881.44</ele><time>2015-09-26T10:07:09Z</time></trkpt><trkpt lat="46.682152" lon="8.886840"><ele>1881.44</ele><time>2015-09-26T10:07:26Z</time></trkpt><trkpt lat="46.682182" lon="8.886860"><ele>1881.92</ele><time>2015-09-26T10:07:36Z</time></trkpt><trkpt lat="46.682201" lon="8.886911"><ele>1882.88</ele><time>2015-09-26T10:07:47Z</time></trkpt><trkpt lat="46.682251" lon="8.886979"><ele>1882.88</ele><time>2015-09-26T10:07:59Z</time></trkpt><trkpt lat="46.682320" lon="8.887070"><ele>1883.36</ele><time>2015-09-26T10:08:10Z</time></trkpt><trkpt lat="46.682407" lon="8.887110"><ele>1883.36</ele><time>2015-09-26T10:08:21Z</time></trkpt><trkpt lat="46.682442" lon="8.887138"><ele>1883.36</ele><time>2015-09-26T10:08:25Z</time></trkpt><trkpt lat="46.682541" lon="8.887233"><ele>1885.28</ele><time>2015-09-26T10:08:38Z</time></trkpt><trkpt lat="46.682575" lon="8.887295"><ele>1886.24</ele><time>2015-09-26T10:08:45Z</time></trkpt><trkpt lat="46.682632" lon="8.887370"><ele>1887.21</ele><time>2015-09-26T10:08:56Z</time></trkpt><trkpt lat="46.682686" lon="8.887437"><ele>1888.65</ele><time>2015-09-26T10:09:07Z</time></trkpt><trkpt lat="46.682728" lon="8.887472"><ele>1889.13</ele><time>2015-09-26T10:09:14Z</time></trkpt><trkpt lat="46.682758" lon="8.887480"><ele>1889.61</ele><time>2015-09-26T10:09:17Z</time></trkpt><trkpt lat="46.682812" lon="8.887552"><ele>1891.05</ele><time>2015-09-26T10:09:28Z</time></trkpt><trkpt lat="46.682816" lon="8.887653"><ele>1892.01</ele><time>2015-09-26T10:09:39Z</time></trkpt><trkpt lat="46.682819" lon="8.887760"><ele>1895.38</ele><time>2015-09-26T10:09:50Z</time></trkpt><trkpt lat="46.682838" lon="8.887756"><ele>1895.38</ele><time>2015-09-26T10:10:04Z</time></trkpt><trkpt lat="46.682842" lon="8.887762"><ele>1895.38</ele><time>2015-09-26T10:10:24Z</time></trkpt><trkpt lat="46.682850" lon="8.887760"><ele>1895.38</ele><time>2015-09-26T10:10:44Z</time></trkpt><trkpt lat="46.682846" lon="8.887759"><ele>1895.38</ele><time>2015-09-26T10:11:02Z</time></trkpt><trkpt lat="46.682846" lon="8.887759"><ele>1895.86</ele><time>2015-09-26T10:11:28Z</time></trkpt><trkpt lat="46.682865" lon="8.887765"><ele>1895.86</ele><time>2015-09-26T10:11:45Z</time></trkpt><trkpt lat="46.682865" lon="8.887766"><ele>1895.86</ele><time>2015-09-26T10:12:09Z</time></trkpt><trkpt lat="46.682865" lon="8.887766"><ele>1895.38</ele><time>2015-09-26T10:12:23Z</time></trkpt><trkpt lat="46.682983" lon="8.887889"><ele>1894.90</ele><time>2015-09-26T10:12:38Z</time></trkpt><trkpt lat="46.682995" lon="8.887910"><ele>1893.93</ele><time>2015-09-26T10:12:40Z</time></trkpt><trkpt lat="46.683025" lon="8.887939"><ele>1893.45</ele><time>2015-09-26T10:12:43Z</time></trkpt><trkpt lat="46.683048" lon="8.888004"><ele>1893.93</ele><time>2015-09-26T10:12:47Z</time></trkpt><trkpt lat="46.683155" lon="8.888144"><ele>1894.90</ele><time>2015-09-26T10:13:02Z</time></trkpt><trkpt lat="46.683163" lon="8.888181"><ele>1893.93</ele><time>2015-09-26T10:13:05Z</time></trkpt><trkpt lat="46.683178" lon="8.888261"><ele>1893.93</ele><time>2015-09-26T10:13:10Z</time></trkpt><trkpt lat="46.683186" lon="8.888425"><ele>1892.49</ele><time>2015-09-26T10:13:23Z</time></trkpt><trkpt lat="46.683197" lon="8.888466"><ele>1892.97</ele><time>2015-09-26T10:13:27Z</time></trkpt><trkpt lat="46.683250" lon="8.888550"><ele>1891.53</ele><time>2015-09-26T10:13:35Z</time></trkpt><trkpt lat="46.683266" lon="8.888583"><ele>1892.01</ele><time>2015-09-26T10:13:38Z</time></trkpt><trkpt lat="46.683323" lon="8.888592"><ele>1891.53</ele><time>2015-09-26T10:13:43Z</time></trkpt><trkpt lat="46.683369" lon="8.888584"><ele>1891.05</ele><time>2015-09-26T10:13:50Z</time></trkpt><trkpt lat="46.683399" lon="8.888611"><ele>1890.57</ele><time>2015-09-26T10:14:01Z</time></trkpt><trkpt lat="46.683399" lon="8.888611"><ele>1891.53</ele><time>2015-09-26T10:14:28Z</time></trkpt><trkpt lat="46.683399" lon="8.888610"><ele>1891.05</ele><time>2015-09-26T10:14:39Z</time></trkpt><trkpt lat="46.683399" lon="8.888610"><ele>1891.53</ele><time>2015-09-26T10:15:02Z</time></trkpt><trkpt lat="46.683418" lon="8.888578"><ele>1891.05</ele><time>2015-09-26T10:15:15Z</time></trkpt><trkpt lat="46.683426" lon="8.888582"><ele>1891.05</ele><time>2015-09-26T10:15:17Z</time></trkpt><trkpt lat="46.683456" lon="8.888554"><ele>1892.49</ele><time>2015-09-26T10:15:25Z</time></trkpt><trkpt lat="46.683479" lon="8.888550"><ele>1892.49</ele><time>2015-09-26T10:15:29Z</time></trkpt><trkpt lat="46.683502" lon="8.888495"><ele>1893.93</ele><time>2015-09-26T10:15:38Z</time></trkpt><trkpt lat="46.683521" lon="8.888373"><ele>1895.86</ele><time>2015-09-26T10:15:50Z</time></trkpt><trkpt lat="46.683540" lon="8.888352"><ele>1896.34</ele><time>2015-09-26T10:15:54Z</time></trkpt><trkpt lat="46.683605" lon="8.888282"><ele>1897.78</ele><time>2015-09-26T10:16:08Z</time></trkpt><trkpt lat="46.683640" lon="8.888236"><ele>1899.22</ele><time>2015-09-26T10:16:17Z</time></trkpt><trkpt lat="46.683659" lon="8.888131"><ele>1900.66</ele><time>2015-09-26T10:16:28Z</time></trkpt><trkpt lat="46.683666" lon="8.888110"><ele>1900.18</ele><time>2015-09-26T10:16:30Z</time></trkpt><trkpt lat="46.683739" lon="8.887959"><ele>1900.66</ele><time>2015-09-26T10:16:43Z</time></trkpt><trkpt lat="46.683754" lon="8.887917"><ele>1901.63</ele><time>2015-09-26T10:16:46Z</time></trkpt><trkpt lat="46.683769" lon="8.887897"><ele>1901.63</ele><time>2015-09-26T10:16:48Z</time></trkpt><trkpt lat="46.683773" lon="8.887875"><ele>1902.11</ele><time>2015-09-26T10:16:50Z</time></trkpt><trkpt lat="46.683788" lon="8.887833"><ele>1902.59</ele><time>2015-09-26T10:16:53Z</time></trkpt><trkpt lat="46.683800" lon="8.887806"><ele>1902.59</ele><time>2015-09-26T10:16:55Z</time></trkpt><trkpt lat="46.683834" lon="8.887689"><ele>1903.07</ele><time>2015-09-26T10:17:04Z</time></trkpt><trkpt lat="46.683861" lon="8.887664"><ele>1902.59</ele><time>2015-09-26T10:17:07Z</time></trkpt><trkpt lat="46.683914" lon="8.887526"><ele>1904.99</ele><time>2015-09-26T10:17:20Z</time></trkpt><trkpt lat="46.683945" lon="8.887406"><ele>1906.43</ele><time>2015-09-26T10:17:32Z</time></trkpt><trkpt lat="46.683990" lon="8.887299"><ele>1908.35</ele><time>2015-09-26T10:17:44Z</time></trkpt><trkpt lat="46.684021" lon="8.887204"><ele>1909.32</ele><time>2015-09-26T10:17:54Z</time></trkpt><trkpt lat="46.684029" lon="8.887115"><ele>1909.80</ele><time>2015-09-26T10:18:06Z</time></trkpt><trkpt lat="46.684021" lon="8.887124"><ele>1910.28</ele><time>2015-09-26T10:18:20Z</time></trkpt><trkpt lat="46.684021" lon="8.887098"><ele>1909.80</ele><time>2015-09-26T10:18:34Z</time></trkpt><trkpt lat="46.684013" lon="8.887060"><ele>1910.28</ele><time>2015-09-26T10:18:37Z</time></trkpt><trkpt lat="46.684010" lon="8.887018"><ele>1910.76</ele><time>2015-09-26T10:18:40Z</time></trkpt><trkpt lat="46.684010" lon="8.886988"><ele>1910.28</ele><time>2015-09-26T10:18:42Z</time></trkpt><trkpt lat="46.684025" lon="8.886858"><ele>1910.28</ele><time>2015-09-26T10:18:52Z</time></trkpt><trkpt lat="46.684032" lon="8.886763"><ele>1910.76</ele><time>2015-09-26T10:19:01Z</time></trkpt><trkpt lat="46.684040" lon="8.886645"><ele>1911.24</ele><time>2015-09-26T10:19:12Z</time></trkpt><trkpt lat="46.684067" lon="8.886460"><ele>1911.24</ele><time>2015-09-26T10:19:25Z</time></trkpt><trkpt lat="46.684059" lon="8.886420"><ele>1910.76</ele><time>2015-09-26T10:19:28Z</time></trkpt><trkpt lat="46.684059" lon="8.886392"><ele>1911.24</ele><time>2015-09-26T10:19:30Z</time></trkpt><trkpt lat="46.684040" lon="8.886270"><ele>1911.72</ele><time>2015-09-26T10:19:41Z</time></trkpt><trkpt lat="46.684025" lon="8.886257"><ele>1912.68</ele><time>2015-09-26T10:19:44Z</time></trkpt><trkpt lat="46.684021" lon="8.886218"><ele>1912.68</ele><time>2015-09-26T10:19:46Z</time></trkpt><trkpt lat="46.684013" lon="8.886065"><ele>1913.64</ele><time>2015-09-26T10:19:59Z</time></trkpt><trkpt lat="46.684013" lon="8.886037"><ele>1914.60</ele><time>2015-09-26T10:20:14Z</time></trkpt><trkpt lat="46.684013" lon="8.886037"><ele>1914.12</ele><time>2015-09-26T10:20:33Z</time></trkpt><trkpt lat="46.684021" lon="8.886003"><ele>1912.68</ele><time>2015-09-26T10:20:41Z</time></trkpt><trkpt lat="46.684032" lon="8.885998"><ele>1914.12</ele><time>2015-09-26T10:20:43Z</time></trkpt><trkpt lat="46.684052" lon="8.885968"><ele>1912.20</ele><time>2015-09-26T10:20:46Z</time></trkpt><trkpt lat="46.684059" lon="8.885924"><ele>1912.68</ele><time>2015-09-26T10:20:58Z</time></trkpt><trkpt lat="46.684067" lon="8.885903"><ele>1911.72</ele><time>2015-09-26T10:21:01Z</time></trkpt><trkpt lat="46.684074" lon="8.885875"><ele>1911.24</ele><time>2015-09-26T10:21:03Z</time></trkpt><trkpt lat="46.684101" lon="8.885790"><ele>1911.24</ele><time>2015-09-26T10:21:13Z</time></trkpt><trkpt lat="46.684097" lon="8.885741"><ele>1910.28</ele><time>2015-09-26T10:21:20Z</time></trkpt><trkpt lat="46.684105" lon="8.885709"><ele>1910.76</ele><time>2015-09-26T10:21:22Z</time></trkpt><trkpt lat="46.684124" lon="8.885668"><ele>1910.76</ele><time>2015-09-26T10:21:25Z</time></trkpt><trkpt lat="46.684132" lon="8.885642"><ele>1911.24</ele><time>2015-09-26T10:21:27Z</time></trkpt><trkpt lat="46.684147" lon="8.885612"><ele>1911.72</ele><time>2015-09-26T10:21:31Z</time></trkpt><trkpt lat="46.684151" lon="8.885570"><ele>1912.68</ele><time>2015-09-26T10:21:36Z</time></trkpt><trkpt lat="46.684181" lon="8.885516"><ele>1912.68</ele><time>2015-09-26T10:21:43Z</time></trkpt><trkpt lat="46.684196" lon="8.885459"><ele>1911.72</ele><time>2015-09-26T10:21:48Z</time></trkpt><trkpt lat="46.684200" lon="8.885400"><ele>1911.72</ele><time>2015-09-26T10:21:53Z</time></trkpt><trkpt lat="46.684208" lon="8.885345"><ele>1911.72</ele><time>2015-09-26T10:21:57Z</time></trkpt><trkpt lat="46.684208" lon="8.885268"><ele>1911.72</ele><time>2015-09-26T10:22:05Z</time></trkpt><trkpt lat="46.684227" lon="8.885223"><ele>1912.20</ele><time>2015-09-26T10:22:10Z</time></trkpt><trkpt lat="46.684238" lon="8.885193"><ele>1914.12</ele><time>2015-09-26T10:22:14Z</time></trkpt><trkpt lat="46.684277" lon="8.885162"><ele>1914.60</ele><time>2015-09-26T10:22:27Z</time></trkpt><trkpt lat="46.684280" lon="8.885128"><ele>1914.12</ele><time>2015-09-26T10:22:42Z</time></trkpt><trkpt lat="46.684284" lon="8.885040"><ele>1912.68</ele><time>2015-09-26T10:22:56Z</time></trkpt><trkpt lat="46.684284" lon="8.885035"><ele>1914.12</ele><time>2015-09-26T10:23:03Z</time></trkpt><trkpt lat="46.684322" lon="8.885022"><ele>1914.60</ele><time>2015-09-26T10:23:15Z</time></trkpt><trkpt lat="46.684364" lon="8.885044"><ele>1917.01</ele><time>2015-09-26T10:23:26Z</time></trkpt><trkpt lat="46.684361" lon="8.885057"><ele>1916.53</ele><time>2015-09-26T10:23:38Z</time></trkpt><trkpt lat="46.684361" lon="8.885056"><ele>1917.49</ele><time>2015-09-26T10:24:14Z</time></trkpt><trkpt lat="46.684368" lon="8.885054"><ele>1917.01</ele><time>2015-09-26T10:24:31Z</time></trkpt><trkpt lat="46.684364" lon="8.885052"><ele>1917.01</ele><time>2015-09-26T10:24:46Z</time></trkpt><trkpt lat="46.684364" lon="8.885052"><ele>1917.49</ele><time>2015-09-26T10:25:11Z</time></trkpt><trkpt lat="46.684364" lon="8.885054"><ele>1917.49</ele><time>2015-09-26T10:25:43Z</time></trkpt><trkpt lat="46.684364" lon="8.885056"><ele>1917.97</ele><time>2015-09-26T10:26:08Z</time></trkpt><trkpt lat="46.684364" lon="8.885058"><ele>1917.97</ele><time>2015-09-26T10:26:40Z</time></trkpt><trkpt lat="46.684364" lon="8.885058"><ele>1917.01</ele><time>2015-09-26T10:26:57Z</time></trkpt><trkpt lat="46.684364" lon="8.885056"><ele>1917.97</ele><time>2015-09-26T10:27:25Z</time></trkpt><trkpt lat="46.684364" lon="8.885056"><ele>1917.01</ele><time>2015-09-26T10:27:34Z</time></trkpt><trkpt lat="46.684364" lon="8.885056"><ele>1917.97</ele><time>2015-09-26T10:27:59Z</time></trkpt><trkpt lat="46.684361" lon="8.885059"><ele>1918.45</ele><time>2015-09-26T10:28:31Z</time></trkpt><trkpt lat="46.684364" lon="8.885051"><ele>1917.97</ele><time>2015-09-26T10:29:03Z</time></trkpt><trkpt lat="46.684361" lon="8.885054"><ele>1918.93</ele><time>2015-09-26T10:29:33Z</time></trkpt><trkpt lat="46.684361" lon="8.885067"><ele>1918.45</ele><time>2015-09-26T10:30:02Z</time></trkpt><trkpt lat="46.684361" lon="8.885067"><ele>1918.93</ele><time>2015-09-26T10:30:34Z</time></trkpt><trkpt lat="46.684361" lon="8.885064"><ele>1919.41</ele><time>2015-09-26T10:31:08Z</time></trkpt><trkpt lat="46.684361" lon="8.885061"><ele>1919.41</ele><time>2015-09-26T10:31:44Z</time></trkpt><trkpt lat="46.684361" lon="8.885060"><ele>1919.89</ele><time>2015-09-26T10:32:15Z</time></trkpt><trkpt lat="46.684364" lon="8.885057"><ele>1918.93</ele><time>2015-09-26T10:32:48Z</time></trkpt><trkpt lat="46.684364" lon="8.885046"><ele>1919.89</ele><time>2015-09-26T10:33:21Z</time></trkpt><trkpt lat="46.684364" lon="8.885046"><ele>1919.89</ele><time>2015-09-26T10:33:52Z</time></trkpt><trkpt lat="46.684364" lon="8.885034"><ele>1920.37</ele><time>2015-09-26T10:34:27Z</time></trkpt><trkpt lat="46.684361" lon="8.885038"><ele>1919.89</ele><time>2015-09-26T10:35:00Z</time></trkpt><trkpt lat="46.684357" lon="8.885037"><ele>1920.37</ele><time>2015-09-26T10:35:29Z</time></trkpt><trkpt lat="46.684357" lon="8.885044"><ele>1920.85</ele><time>2015-09-26T10:36:00Z</time></trkpt><trkpt lat="46.684357" lon="8.885044"><ele>1920.85</ele><time>2015-09-26T10:36:34Z</time></trkpt><trkpt lat="46.684361" lon="8.885052"><ele>1920.85</ele><time>2015-09-26T10:37:08Z</time></trkpt><trkpt lat="46.684357" lon="8.885052"><ele>1921.33</ele><time>2015-09-26T10:37:47Z</time></trkpt><trkpt lat="46.684357" lon="8.885052"><ele>1921.81</ele><time>2015-09-26T10:38:22Z</time></trkpt><trkpt lat="46.684353" lon="8.885053"><ele>1922.29</ele><time>2015-09-26T10:38:58Z</time></trkpt><trkpt lat="46.684357" lon="8.885057"><ele>1921.81</ele><time>2015-09-26T10:39:31Z</time></trkpt><trkpt lat="46.684357" lon="8.885054"><ele>1922.77</ele><time>2015-09-26T10:40:03Z</time></trkpt><trkpt lat="46.684357" lon="8.885054"><ele>1922.77</ele><time>2015-09-26T10:40:37Z</time></trkpt><trkpt lat="46.684361" lon="8.885052"><ele>1922.29</ele><time>2015-09-26T10:41:13Z</time></trkpt><trkpt lat="46.684361" lon="8.885055"><ele>1921.81</ele><time>2015-09-26T10:41:49Z</time></trkpt><trkpt lat="46.684361" lon="8.885047"><ele>1922.77</ele><time>2015-09-26T10:42:20Z</time></trkpt><trkpt lat="46.684357" lon="8.885041"><ele>1923.25</ele><time>2015-09-26T10:42:54Z</time></trkpt><trkpt lat="46.684357" lon="8.885049"><ele>1923.25</ele><time>2015-09-26T10:43:26Z</time></trkpt><trkpt lat="46.684357" lon="8.885050"><ele>1923.25</ele><time>2015-09-26T10:43:51Z</time></trkpt><trkpt lat="46.684353" lon="8.885037"><ele>1923.25</ele><time>2015-09-26T10:44:10Z</time></trkpt><trkpt lat="46.684353" lon="8.885037"><ele>1922.77</ele><time>2015-09-26T10:44:36Z</time></trkpt><trkpt lat="46.684349" lon="8.885034"><ele>1922.77</ele><time>2015-09-26T10:45:10Z</time></trkpt><trkpt lat="46.684345" lon="8.885031"><ele>1923.25</ele><time>2015-09-26T10:45:38Z</time></trkpt><trkpt lat="46.684345" lon="8.885031"><ele>1923.74</ele><time>2015-09-26T10:46:02Z</time></trkpt><trkpt lat="46.684349" lon="8.885041"><ele>1923.25</ele><time>2015-09-26T10:46:23Z</time></trkpt><trkpt lat="46.684349" lon="8.885041"><ele>1923.25</ele><time>2015-09-26T10:46:54Z</time></trkpt><trkpt lat="46.684353" lon="8.885040"><ele>1923.25</ele><time>2015-09-26T10:47:22Z</time></trkpt><trkpt lat="46.684341" lon="8.885048"><ele>1923.74</ele><time>2015-09-26T10:47:48Z</time></trkpt><trkpt lat="46.684364" lon="8.885054"><ele>1924.22</ele><time>2015-09-26T10:48:05Z</time></trkpt><trkpt lat="46.684361" lon="8.885061"><ele>1924.22</ele><time>2015-09-26T10:48:24Z</time></trkpt><trkpt lat="46.684361" lon="8.885061"><ele>1924.70</ele><time>2015-09-26T10:48:35Z</time></trkpt><trkpt lat="46.684368" lon="8.885036"><ele>1925.18</ele><time>2015-09-26T10:48:46Z</time></trkpt><trkpt lat="46.684353" lon="8.885015"><ele>1923.74</ele><time>2015-09-26T10:48:54Z</time></trkpt><trkpt lat="46.684349" lon="8.884986"><ele>1923.25</ele><time>2015-09-26T10:48:56Z</time></trkpt><trkpt lat="46.684326" lon="8.884825"><ele>1920.85</ele><time>2015-09-26T10:49:09Z</time></trkpt><trkpt lat="46.684326" lon="8.884713"><ele>1918.45</ele><time>2015-09-26T10:49:17Z</time></trkpt><trkpt lat="46.684326" lon="8.884648"><ele>1917.97</ele><time>2015-09-26T10:49:22Z</time></trkpt><trkpt lat="46.684322" lon="8.884624"><ele>1916.04</ele><time>2015-09-26T10:49:24Z</time></trkpt><trkpt lat="46.684303" lon="8.884521"><ele>1915.08</ele><time>2015-09-26T10:49:31Z</time></trkpt><trkpt lat="46.684246" lon="8.884505"><ele>1912.20</ele><time>2015-09-26T10:49:41Z</time></trkpt><trkpt lat="46.684155" lon="8.884607"><ele>1908.83</ele><time>2015-09-26T10:49:55Z</time></trkpt><trkpt lat="46.684128" lon="8.884620"><ele>1908.35</ele><time>2015-09-26T10:49:58Z</time></trkpt><trkpt lat="46.684063" lon="8.884566"><ele>1906.43</ele><time>2015-09-26T10:50:11Z</time></trkpt><trkpt lat="46.684063" lon="8.884557"><ele>1905.95</ele><time>2015-09-26T10:50:12Z</time></trkpt><trkpt lat="46.684048" lon="8.884447"><ele>1903.07</ele><time>2015-09-26T10:50:24Z</time></trkpt><trkpt lat="46.684036" lon="8.884417"><ele>1902.11</ele><time>2015-09-26T10:50:27Z</time></trkpt><trkpt lat="46.684048" lon="8.884356"><ele>1900.66</ele><time>2015-09-26T10:50:31Z</time></trkpt><trkpt lat="46.684040" lon="8.884293"><ele>1900.18</ele><time>2015-09-26T10:50:36Z</time></trkpt><trkpt lat="46.684036" lon="8.884258"><ele>1900.18</ele><time>2015-09-26T10:50:38Z</time></trkpt><trkpt lat="46.684032" lon="8.884182"><ele>1898.26</ele><time>2015-09-26T10:50:43Z</time></trkpt><trkpt lat="46.683998" lon="8.884026"><ele>1895.86</ele><time>2015-09-26T10:50:55Z</time></trkpt><trkpt lat="46.683979" lon="8.883871"><ele>1892.97</ele><time>2015-09-26T10:51:07Z</time></trkpt><trkpt lat="46.683956" lon="8.883776"><ele>1890.57</ele><time>2015-09-26T10:51:17Z</time></trkpt><trkpt lat="46.683949" lon="8.883660"><ele>1889.13</ele><time>2015-09-26T10:51:25Z</time></trkpt><trkpt lat="46.683968" lon="8.883590"><ele>1888.65</ele><time>2015-09-26T10:51:30Z</time></trkpt><trkpt lat="46.683956" lon="8.883542"><ele>1887.69</ele><time>2015-09-26T10:51:33Z</time></trkpt><trkpt lat="46.683956" lon="8.883475"><ele>1886.24</ele><time>2015-09-26T10:51:38Z</time></trkpt><trkpt lat="46.683952" lon="8.883416"><ele>1885.28</ele><time>2015-09-26T10:51:42Z</time></trkpt><trkpt lat="46.683933" lon="8.883343"><ele>1885.28</ele><time>2015-09-26T10:51:46Z</time></trkpt><trkpt lat="46.683891" lon="8.883231"><ele>1882.88</ele><time>2015-09-26T10:51:58Z</time></trkpt><trkpt lat="46.683884" lon="8.883204"><ele>1881.92</ele><time>2015-09-26T10:52:01Z</time></trkpt><trkpt lat="46.683887" lon="8.883172"><ele>1881.92</ele><time>2015-09-26T10:52:04Z</time></trkpt><trkpt lat="46.683891" lon="8.883096"><ele>1881.44</ele><time>2015-09-26T10:52:08Z</time></trkpt><trkpt lat="46.683876" lon="8.883061"><ele>1880.00</ele><time>2015-09-26T10:52:10Z</time></trkpt><trkpt lat="46.683880" lon="8.882966"><ele>1880.00</ele><time>2015-09-26T10:52:18Z</time></trkpt><trkpt lat="46.683880" lon="8.882863"><ele>1878.55</ele><time>2015-09-26T10:52:24Z</time></trkpt><trkpt lat="46.683884" lon="8.882807"><ele>1878.55</ele><time>2015-09-26T10:52:27Z</time></trkpt><trkpt lat="46.683933" lon="8.882587"><ele>1875.67</ele><time>2015-09-26T10:52:40Z</time></trkpt><trkpt lat="46.683949" lon="8.882552"><ele>1875.19</ele><time>2015-09-26T10:52:42Z</time></trkpt><trkpt lat="46.684006" lon="8.882428"><ele>1874.23</ele><time>2015-09-26T10:52:53Z</time></trkpt><trkpt lat="46.683960" lon="8.882300"><ele>1871.34</ele><time>2015-09-26T10:53:05Z</time></trkpt><trkpt lat="46.683956" lon="8.882295"><ele>1870.86</ele><time>2015-09-26T10:53:06Z</time></trkpt><trkpt lat="46.683941" lon="8.882209"><ele>1868.94</ele><time>2015-09-26T10:53:13Z</time></trkpt><trkpt lat="46.683926" lon="8.882186"><ele>1869.42</ele><time>2015-09-26T10:53:15Z</time></trkpt><trkpt lat="46.683910" lon="8.882172"><ele>1868.94</ele><time>2015-09-26T10:53:17Z</time></trkpt><trkpt lat="46.683884" lon="8.882069"><ele>1867.02</ele><time>2015-09-26T10:53:26Z</time></trkpt><trkpt lat="46.683876" lon="8.882017"><ele>1865.58</ele><time>2015-09-26T10:53:30Z</time></trkpt><trkpt lat="46.683838" lon="8.881907"><ele>1863.17</ele><time>2015-09-26T10:53:39Z</time></trkpt><trkpt lat="46.683842" lon="8.881864"><ele>1863.17</ele><time>2015-09-26T10:53:42Z</time></trkpt><trkpt lat="46.683823" lon="8.881687"><ele>1860.29</ele><time>2015-09-26T10:53:54Z</time></trkpt><trkpt lat="46.683758" lon="8.881585"><ele>1858.37</ele><time>2015-09-26T10:54:04Z</time></trkpt><trkpt lat="46.683750" lon="8.881519"><ele>1857.40</ele><time>2015-09-26T10:54:09Z</time></trkpt><trkpt lat="46.683735" lon="8.881386"><ele>1854.52</ele><time>2015-09-26T10:54:22Z</time></trkpt><trkpt lat="46.683735" lon="8.881350"><ele>1854.04</ele><time>2015-09-26T10:54:25Z</time></trkpt><trkpt lat="46.683716" lon="8.881304"><ele>1853.56</ele><time>2015-09-26T10:54:28Z</time></trkpt><trkpt lat="46.683697" lon="8.881175"><ele>1849.71</ele><time>2015-09-26T10:54:40Z</time></trkpt><trkpt lat="46.683697" lon="8.881160"><ele>1849.71</ele><time>2015-09-26T10:54:41Z</time></trkpt><trkpt lat="46.683693" lon="8.881083"><ele>1848.75</ele><time>2015-09-26T10:54:45Z</time></trkpt><trkpt lat="46.683720" lon="8.881000"><ele>1847.79</ele><time>2015-09-26T10:54:50Z</time></trkpt><trkpt lat="46.683743" lon="8.880918"><ele>1846.35</ele><time>2015-09-26T10:54:57Z</time></trkpt><trkpt lat="46.683746" lon="8.880835"><ele>1846.35</ele><time>2015-09-26T10:55:01Z</time></trkpt><trkpt lat="46.683754" lon="8.880616"><ele>1843.47</ele><time>2015-09-26T10:55:15Z</time></trkpt><trkpt lat="46.683743" lon="8.880581"><ele>1842.50</ele><time>2015-09-26T10:55:18Z</time></trkpt><trkpt lat="46.683746" lon="8.880453"><ele>1841.06</ele><time>2015-09-26T10:55:26Z</time></trkpt><trkpt lat="46.683689" lon="8.880235"><ele>1838.18</ele><time>2015-09-26T10:55:39Z</time></trkpt><trkpt lat="46.683681" lon="8.880225"><ele>1838.18</ele><time>2015-09-26T10:55:40Z</time></trkpt><trkpt lat="46.683659" lon="8.880123"><ele>1836.74</ele><time>2015-09-26T10:55:47Z</time></trkpt><trkpt lat="46.683640" lon="8.880048"><ele>1836.26</ele><time>2015-09-26T10:55:52Z</time></trkpt><trkpt lat="46.683636" lon="8.879875"><ele>1833.37</ele><time>2015-09-26T10:56:04Z</time></trkpt><trkpt lat="46.683647" lon="8.879800"><ele>1832.41</ele><time>2015-09-26T10:56:08Z</time></trkpt><trkpt lat="46.683659" lon="8.879740"><ele>1831.45</ele><time>2015-09-26T10:56:12Z</time></trkpt><trkpt lat="46.683659" lon="8.879705"><ele>1831.45</ele><time>2015-09-26T10:56:14Z</time></trkpt><trkpt lat="46.683674" lon="8.879468"><ele>1830.49</ele><time>2015-09-26T10:56:26Z</time></trkpt><trkpt lat="46.683720" lon="8.879272"><ele>1828.08</ele><time>2015-09-26T10:56:38Z</time></trkpt><trkpt lat="46.683758" lon="8.879221"><ele>1827.60</ele><time>2015-09-26T10:56:42Z</time></trkpt><trkpt lat="46.683777" lon="8.879158"><ele>1826.64</ele><time>2015-09-26T10:56:47Z</time></trkpt><trkpt lat="46.683784" lon="8.879119"><ele>1827.12</ele><time>2015-09-26T10:56:49Z</time></trkpt><trkpt lat="46.683800" lon="8.878917"><ele>1824.72</ele><time>2015-09-26T10:57:00Z</time></trkpt><trkpt lat="46.683784" lon="8.878724"><ele>1824.24</ele><time>2015-09-26T10:57:10Z</time></trkpt><trkpt lat="46.683788" lon="8.878653"><ele>1824.24</ele><time>2015-09-26T10:57:14Z</time></trkpt><trkpt lat="46.683773" lon="8.878567"><ele>1824.24</ele><time>2015-09-26T10:57:19Z</time></trkpt><trkpt lat="46.683727" lon="8.878348"><ele>1824.24</ele><time>2015-09-26T10:57:31Z</time></trkpt><trkpt lat="46.683720" lon="8.878179"><ele>1823.28</ele><time>2015-09-26T10:57:40Z</time></trkpt><trkpt lat="46.683762" lon="8.878001"><ele>1822.32</ele><time>2015-09-26T10:57:50Z</time></trkpt><trkpt lat="46.683773" lon="8.877875"><ele>1820.87</ele><time>2015-09-26T10:57:57Z</time></trkpt><trkpt lat="46.683784" lon="8.877834"><ele>1820.39</ele><time>2015-09-26T10:57:59Z</time></trkpt><trkpt lat="46.683788" lon="8.877603"><ele>1819.91</ele><time>2015-09-26T10:58:10Z</time></trkpt><trkpt lat="46.683781" lon="8.877473"><ele>1819.43</ele><time>2015-09-26T10:58:17Z</time></trkpt><trkpt lat="46.683781" lon="8.877293"><ele>1818.95</ele><time>2015-09-26T10:58:27Z</time></trkpt><trkpt lat="46.683765" lon="8.877222"><ele>1818.95</ele><time>2015-09-26T10:58:31Z</time></trkpt><trkpt lat="46.683750" lon="8.876965"><ele>1817.51</ele><time>2015-09-26T10:58:43Z</time></trkpt><trkpt lat="46.683739" lon="8.876730"><ele>1817.03</ele><time>2015-09-26T10:58:55Z</time></trkpt><trkpt lat="46.683678" lon="8.876509"><ele>1816.07</ele><time>2015-09-26T10:59:08Z</time></trkpt><trkpt lat="46.683662" lon="8.876439"><ele>1815.59</ele><time>2015-09-26T10:59:13Z</time></trkpt><trkpt lat="46.683651" lon="8.876344"><ele>1814.15</ele><time>2015-09-26T10:59:19Z</time></trkpt><trkpt lat="46.683640" lon="8.876241"><ele>1813.18</ele><time>2015-09-26T10:59:25Z</time></trkpt><trkpt lat="46.683632" lon="8.876142"><ele>1811.74</ele><time>2015-09-26T10:59:31Z</time></trkpt><trkpt lat="46.683559" lon="8.876015"><ele>1810.30</ele><time>2015-09-26T10:59:40Z</time></trkpt><trkpt lat="46.683510" lon="8.875843"><ele>1808.86</ele><time>2015-09-26T10:59:50Z</time></trkpt><trkpt lat="46.683487" lon="8.875812"><ele>1808.86</ele><time>2015-09-26T11:00:02Z</time></trkpt><trkpt lat="46.683487" lon="8.875812"><ele>1808.38</ele><time>2015-09-26T11:00:18Z</time></trkpt><trkpt lat="46.683487" lon="8.875812"><ele>1808.86</ele><time>2015-09-26T11:00:35Z</time></trkpt><trkpt lat="46.683460" lon="8.875788"><ele>1808.38</ele><time>2015-09-26T11:00:39Z</time></trkpt><trkpt lat="46.683365" lon="8.875732"><ele>1807.42</ele><time>2015-09-26T11:00:48Z</time></trkpt><trkpt lat="46.683304" lon="8.875665"><ele>1805.49</ele><time>2015-09-26T11:00:54Z</time></trkpt><trkpt lat="46.683270" lon="8.875581"><ele>1804.05</ele><time>2015-09-26T11:00:59Z</time></trkpt><trkpt lat="46.683224" lon="8.875331"><ele>1801.65</ele><time>2015-09-26T11:01:13Z</time></trkpt><trkpt lat="46.683216" lon="8.875294"><ele>1801.17</ele><time>2015-09-26T11:01:15Z</time></trkpt><trkpt lat="46.683186" lon="8.875091"><ele>1798.28</ele><time>2015-09-26T11:01:29Z</time></trkpt><trkpt lat="46.683174" lon="8.875040"><ele>1797.32</ele><time>2015-09-26T11:01:32Z</time></trkpt><trkpt lat="46.683079" lon="8.874889"><ele>1795.40</ele><time>2015-09-26T11:01:43Z</time></trkpt><trkpt lat="46.683075" lon="8.874873"><ele>1795.40</ele><time>2015-09-26T11:01:44Z</time></trkpt><trkpt lat="46.683067" lon="8.874839"><ele>1795.40</ele><time>2015-09-26T11:01:46Z</time></trkpt><trkpt lat="46.683048" lon="8.874797"><ele>1794.44</ele><time>2015-09-26T11:01:49Z</time></trkpt><trkpt lat="46.683022" lon="8.874721"><ele>1793.96</ele><time>2015-09-26T11:01:53Z</time></trkpt><trkpt lat="46.682926" lon="8.874515"><ele>1792.03</ele><time>2015-09-26T11:02:06Z</time></trkpt><trkpt lat="46.682892" lon="8.874363"><ele>1790.11</ele><time>2015-09-26T11:02:15Z</time></trkpt><trkpt lat="46.682861" lon="8.874258"><ele>1789.63</ele><time>2015-09-26T11:02:27Z</time></trkpt><trkpt lat="46.682861" lon="8.874258"><ele>1789.15</ele><time>2015-09-26T11:02:28Z</time></trkpt><trkpt lat="46.682785" lon="8.874057"><ele>1787.23</ele><time>2015-09-26T11:02:41Z</time></trkpt><trkpt lat="46.682755" lon="8.873948"><ele>1786.27</ele><time>2015-09-26T11:02:47Z</time></trkpt><trkpt lat="46.682732" lon="8.873884"><ele>1785.31</ele><time>2015-09-26T11:02:51Z</time></trkpt><trkpt lat="46.682644" lon="8.873678"><ele>1783.86</ele><time>2015-09-26T11:03:04Z</time></trkpt><trkpt lat="46.682629" lon="8.873655"><ele>1783.86</ele><time>2015-09-26T11:03:06Z</time></trkpt><trkpt lat="46.682545" lon="8.873513"><ele>1781.94</ele><time>2015-09-26T11:03:17Z</time></trkpt><trkpt lat="46.682472" lon="8.873401"><ele>1780.50</ele><time>2015-09-26T11:03:25Z</time></trkpt><trkpt lat="46.682396" lon="8.873160"><ele>1778.10</ele><time>2015-09-26T11:03:39Z</time></trkpt><trkpt lat="46.682335" lon="8.872944"><ele>1776.65</ele><time>2015-09-26T11:03:51Z</time></trkpt><trkpt lat="46.682259" lon="8.872746"><ele>1774.73</ele><time>2015-09-26T11:04:03Z</time></trkpt><trkpt lat="46.682217" lon="8.872612"><ele>1774.25</ele><time>2015-09-26T11:04:10Z</time></trkpt><trkpt lat="46.682159" lon="8.872351"><ele>1772.81</ele><time>2015-09-26T11:04:24Z</time></trkpt><trkpt lat="46.682148" lon="8.872295"><ele>1772.33</ele><time>2015-09-26T11:04:27Z</time></trkpt><trkpt lat="46.682110" lon="8.872087"><ele>1770.89</ele><time>2015-09-26T11:04:40Z</time></trkpt><trkpt lat="46.682091" lon="8.872005"><ele>1769.92</ele><time>2015-09-26T11:04:46Z</time></trkpt><trkpt lat="46.682076" lon="8.871939"><ele>1769.92</ele><time>2015-09-26T11:04:51Z</time></trkpt><trkpt lat="46.682007" lon="8.871820"><ele>1768.00</ele><time>2015-09-26T11:05:08Z</time></trkpt><trkpt lat="46.682003" lon="8.871817"><ele>1768.48</ele><time>2015-09-26T11:05:21Z</time></trkpt><trkpt lat="46.681999" lon="8.871807"><ele>1768.00</ele><time>2015-09-26T11:05:34Z</time></trkpt><trkpt lat="46.681988" lon="8.871784"><ele>1768.00</ele><time>2015-09-26T11:05:36Z</time></trkpt><trkpt lat="46.681961" lon="8.871722"><ele>1767.04</ele><time>2015-09-26T11:05:40Z</time></trkpt><trkpt lat="46.681923" lon="8.871664"><ele>1766.08</ele><time>2015-09-26T11:05:45Z</time></trkpt><trkpt lat="46.681854" lon="8.871460"><ele>1764.16</ele><time>2015-09-26T11:05:58Z</time></trkpt><trkpt lat="46.681831" lon="8.871236"><ele>1762.23</ele><time>2015-09-26T11:06:10Z</time></trkpt><trkpt lat="46.681801" lon="8.870997"><ele>1760.79</ele><time>2015-09-26T11:06:23Z</time></trkpt><trkpt lat="46.681759" lon="8.870781"><ele>1758.39</ele><time>2015-09-26T11:06:35Z</time></trkpt><trkpt lat="46.681747" lon="8.870540"><ele>1756.47</ele><time>2015-09-26T11:06:48Z</time></trkpt><trkpt lat="46.681767" lon="8.870280"><ele>1754.06</ele><time>2015-09-26T11:07:02Z</time></trkpt><trkpt lat="46.681767" lon="8.870247"><ele>1754.06</ele><time>2015-09-26T11:07:04Z</time></trkpt><trkpt lat="46.681789" lon="8.869976"><ele>1751.66</ele><time>2015-09-26T11:07:20Z</time></trkpt><trkpt lat="46.681801" lon="8.869776"><ele>1749.74</ele><time>2015-09-26T11:07:32Z</time></trkpt><trkpt lat="46.681801" lon="8.869776"><ele>1749.74</ele><time>2015-09-26T11:07:53Z</time></trkpt><trkpt lat="46.681801" lon="8.869781"><ele>1749.74</ele><time>2015-09-26T11:08:13Z</time></trkpt><trkpt lat="46.681801" lon="8.869781"><ele>1748.78</ele><time>2015-09-26T11:08:36Z</time></trkpt><trkpt lat="46.681801" lon="8.869781"><ele>1749.26</ele><time>2015-09-26T11:08:38Z</time></trkpt><trkpt lat="46.681801" lon="8.869655"><ele>1747.81</ele><time>2015-09-26T11:08:45Z</time></trkpt><trkpt lat="46.681808" lon="8.869415"><ele>1746.37</ele><time>2015-09-26T11:08:59Z</time></trkpt><trkpt lat="46.681808" lon="8.869302"><ele>1745.41</ele><time>2015-09-26T11:09:05Z</time></trkpt><trkpt lat="46.681843" lon="8.869088"><ele>1743.97</ele><time>2015-09-26T11:09:18Z</time></trkpt><trkpt lat="46.681854" lon="8.868966"><ele>1742.53</ele><time>2015-09-26T11:09:25Z</time></trkpt><trkpt lat="46.681847" lon="8.868692"><ele>1739.64</ele><time>2015-09-26T11:09:40Z</time></trkpt><trkpt lat="46.681843" lon="8.868585"><ele>1738.68</ele><time>2015-09-26T11:09:45Z</time></trkpt><trkpt lat="46.681835" lon="8.868369"><ele>1735.80</ele><time>2015-09-26T11:09:57Z</time></trkpt><trkpt lat="46.681843" lon="8.868172"><ele>1733.88</ele><time>2015-09-26T11:10:09Z</time></trkpt><trkpt lat="46.681854" lon="8.867961"><ele>1731.47</ele><time>2015-09-26T11:10:21Z</time></trkpt><trkpt lat="46.681854" lon="8.867946"><ele>1731.95</ele><time>2015-09-26T11:10:22Z</time></trkpt><trkpt lat="46.681870" lon="8.867867"><ele>1730.99</ele><time>2015-09-26T11:10:34Z</time></trkpt><trkpt lat="46.681870" lon="8.867857"><ele>1730.03</ele><time>2015-09-26T11:10:35Z</time></trkpt><trkpt lat="46.681866" lon="8.867750"><ele>1729.55</ele><time>2015-09-26T11:10:41Z</time></trkpt><trkpt lat="46.681881" lon="8.867560"><ele>1727.63</ele><time>2015-09-26T11:10:51Z</time></trkpt><trkpt lat="46.681900" lon="8.867429"><ele>1726.67</ele><time>2015-09-26T11:10:58Z</time></trkpt><trkpt lat="46.681904" lon="8.867394"><ele>1726.18</ele><time>2015-09-26T11:11:00Z</time></trkpt><trkpt lat="46.681957" lon="8.867192"><ele>1725.22</ele><time>2015-09-26T11:11:12Z</time></trkpt><trkpt lat="46.681961" lon="8.867174"><ele>1725.22</ele><time>2015-09-26T11:11:13Z</time></trkpt><trkpt lat="46.681980" lon="8.867105"><ele>1724.74</ele><time>2015-09-26T11:11:17Z</time></trkpt><trkpt lat="46.681995" lon="8.867065"><ele>1724.26</ele><time>2015-09-26T11:11:19Z</time></trkpt><trkpt lat="46.682037" lon="8.866950"><ele>1723.78</ele><time>2015-09-26T11:11:25Z</time></trkpt><trkpt lat="46.682098" lon="8.866806"><ele>1723.30</ele><time>2015-09-26T11:11:34Z</time></trkpt><trkpt lat="46.682121" lon="8.866732"><ele>1723.30</ele><time>2015-09-26T11:11:39Z</time></trkpt><trkpt lat="46.682167" lon="8.866652"><ele>1722.82</ele><time>2015-09-26T11:11:44Z</time></trkpt><trkpt lat="46.682186" lon="8.866621"><ele>1722.34</ele><time>2015-09-26T11:11:46Z</time></trkpt><trkpt lat="46.682270" lon="8.866469"><ele>1721.38</ele><time>2015-09-26T11:11:57Z</time></trkpt><trkpt lat="46.682278" lon="8.866449"><ele>1721.38</ele><time>2015-09-26T11:11:58Z</time></trkpt><trkpt lat="46.682327" lon="8.866359"><ele>1720.90</ele><time>2015-09-26T11:12:04Z</time></trkpt><trkpt lat="46.682358" lon="8.866324"><ele>1720.42</ele><time>2015-09-26T11:12:07Z</time></trkpt><trkpt lat="46.682446" lon="8.866134"><ele>1719.94</ele><time>2015-09-26T11:12:19Z</time></trkpt><trkpt lat="46.682484" lon="8.866050"><ele>1719.94</ele><time>2015-09-26T11:12:24Z</time></trkpt><trkpt lat="46.682526" lon="8.865986"><ele>1719.46</ele><time>2015-09-26T11:12:28Z</time></trkpt><trkpt lat="46.682552" lon="8.865945"><ele>1719.46</ele><time>2015-09-26T11:12:31Z</time></trkpt><trkpt lat="46.682583" lon="8.865872"><ele>1718.97</ele><time>2015-09-26T11:12:35Z</time></trkpt><trkpt lat="46.682640" lon="8.865757"><ele>1718.49</ele><time>2015-09-26T11:12:43Z</time></trkpt><trkpt lat="46.682697" lon="8.865521"><ele>1718.01</ele><time>2015-09-26T11:12:56Z</time></trkpt><trkpt lat="46.682705" lon="8.865501"><ele>1718.01</ele><time>2015-09-26T11:12:57Z</time></trkpt><trkpt lat="46.682720" lon="8.865293"><ele>1718.01</ele><time>2015-09-26T11:13:08Z</time></trkpt><trkpt lat="46.682724" lon="8.865269"><ele>1718.01</ele><time>2015-09-26T11:13:09Z</time></trkpt><trkpt lat="46.682701" lon="8.865016"><ele>1717.05</ele><time>2015-09-26T11:13:22Z</time></trkpt><trkpt lat="46.682667" lon="8.864914"><ele>1716.09</ele><time>2015-09-26T11:13:28Z</time></trkpt><trkpt lat="46.682659" lon="8.864874"><ele>1716.09</ele><time>2015-09-26T11:13:30Z</time></trkpt><trkpt lat="46.682606" lon="8.864809"><ele>1715.13</ele><time>2015-09-26T11:13:36Z</time></trkpt><trkpt lat="46.682571" lon="8.864762"><ele>1713.69</ele><time>2015-09-26T11:13:40Z</time></trkpt><trkpt lat="46.682526" lon="8.864665"><ele>1712.73</ele><time>2015-09-26T11:13:46Z</time></trkpt><trkpt lat="46.682487" lon="8.864474"><ele>1711.28</ele><time>2015-09-26T11:13:59Z</time></trkpt><trkpt lat="46.682602" lon="8.864304"><ele>1707.92</ele><time>2015-09-26T11:14:12Z</time></trkpt><trkpt lat="46.682678" lon="8.864192"><ele>1707.44</ele><time>2015-09-26T11:14:21Z</time></trkpt><trkpt lat="46.682812" lon="8.864040"><ele>1705.04</ele><time>2015-09-26T11:14:35Z</time></trkpt><trkpt lat="46.682850" lon="8.863999"><ele>1704.55</ele><time>2015-09-26T11:14:39Z</time></trkpt><trkpt lat="46.682873" lon="8.863835"><ele>1703.11</ele><time>2015-09-26T11:14:49Z</time></trkpt><trkpt lat="46.682877" lon="8.863810"><ele>1703.11</ele><time>2015-09-26T11:15:03Z</time></trkpt><trkpt lat="46.682854" lon="8.863820"><ele>1702.63</ele><time>2015-09-26T11:15:08Z</time></trkpt><trkpt lat="46.682823" lon="8.863800"><ele>1702.15</ele><time>2015-09-26T11:15:11Z</time></trkpt><trkpt lat="46.682663" lon="8.863785"><ele>1699.27</ele><time>2015-09-26T11:15:24Z</time></trkpt><trkpt lat="46.682510" lon="8.863731"><ele>1698.31</ele><time>2015-09-26T11:15:36Z</time></trkpt><trkpt lat="46.682388" lon="8.863668"><ele>1697.83</ele><time>2015-09-26T11:15:46Z</time></trkpt><trkpt lat="46.682236" lon="8.863601"><ele>1696.86</ele><time>2015-09-26T11:15:58Z</time></trkpt><trkpt lat="46.682110" lon="8.863564"><ele>1695.42</ele><time>2015-09-26T11:16:09Z</time></trkpt><trkpt lat="46.682076" lon="8.863580"><ele>1694.94</ele><time>2015-09-26T11:16:12Z</time></trkpt><trkpt lat="46.681938" lon="8.863621"><ele>1693.98</ele><time>2015-09-26T11:16:22Z</time></trkpt><trkpt lat="46.681789" lon="8.863751"><ele>1691.10</ele><time>2015-09-26T11:16:36Z</time></trkpt><trkpt lat="46.681675" lon="8.863863"><ele>1689.17</ele><time>2015-09-26T11:16:47Z</time></trkpt><trkpt lat="46.681530" lon="8.864016"><ele>1686.77</ele><time>2015-09-26T11:17:02Z</time></trkpt><trkpt lat="46.681438" lon="8.864102"><ele>1684.85</ele><time>2015-09-26T11:17:11Z</time></trkpt><trkpt lat="46.681389" lon="8.864157"><ele>1684.37</ele><time>2015-09-26T11:17:16Z</time></trkpt><trkpt lat="46.681267" lon="8.864374"><ele>1682.44</ele><time>2015-09-26T11:17:32Z</time></trkpt><trkpt lat="46.681259" lon="8.864473"><ele>1681.48</ele><time>2015-09-26T11:17:38Z</time></trkpt><trkpt lat="46.681244" lon="8.864674"><ele>1679.56</ele><time>2015-09-26T11:17:50Z</time></trkpt><trkpt lat="46.681232" lon="8.864872"><ele>1677.16</ele><time>2015-09-26T11:18:03Z</time></trkpt><trkpt lat="46.681232" lon="8.864928"><ele>1676.68</ele><time>2015-09-26T11:18:06Z</time></trkpt><trkpt lat="46.681210" lon="8.865001"><ele>1676.20</ele><time>2015-09-26T11:18:19Z</time></trkpt><trkpt lat="46.681210" lon="8.865008"><ele>1675.23</ele><time>2015-09-26T11:18:34Z</time></trkpt><trkpt lat="46.681202" lon="8.865041"><ele>1675.23</ele><time>2015-09-26T11:18:36Z</time></trkpt><trkpt lat="46.681175" lon="8.865153"><ele>1673.79</ele><time>2015-09-26T11:18:43Z</time></trkpt><trkpt lat="46.681175" lon="8.865312"><ele>1672.83</ele><time>2015-09-26T11:18:52Z</time></trkpt><trkpt lat="46.681164" lon="8.865385"><ele>1672.83</ele><time>2015-09-26T11:18:56Z</time></trkpt><trkpt lat="46.681164" lon="8.865625"><ele>1670.43</ele><time>2015-09-26T11:19:08Z</time></trkpt><trkpt lat="46.681156" lon="8.865762"><ele>1668.99</ele><time>2015-09-26T11:19:16Z</time></trkpt><trkpt lat="46.681149" lon="8.865799"><ele>1668.51</ele><time>2015-09-26T11:19:18Z</time></trkpt><trkpt lat="46.681145" lon="8.865852"><ele>1667.54</ele><time>2015-09-26T11:19:20Z</time></trkpt><trkpt lat="46.681114" lon="8.865927"><ele>1667.06</ele><time>2015-09-26T11:19:26Z</time></trkpt><trkpt lat="46.681107" lon="8.866118"><ele>1665.62</ele><time>2015-09-26T11:19:35Z</time></trkpt><trkpt lat="46.681076" lon="8.866239"><ele>1664.66</ele><time>2015-09-26T11:19:41Z</time></trkpt><trkpt lat="46.681015" lon="8.866399"><ele>1661.78</ele><time>2015-09-26T11:19:51Z</time></trkpt><trkpt lat="46.680950" lon="8.866572"><ele>1660.33</ele><time>2015-09-26T11:20:01Z</time></trkpt><trkpt lat="46.680836" lon="8.866803"><ele>1657.93</ele><time>2015-09-26T11:20:16Z</time></trkpt><trkpt lat="46.680767" lon="8.867040"><ele>1655.53</ele><time>2015-09-26T11:20:29Z</time></trkpt><trkpt lat="46.680733" lon="8.867310"><ele>1653.60</ele><time>2015-09-26T11:20:43Z</time></trkpt><trkpt lat="46.680687" lon="8.867525"><ele>1652.16</ele><time>2015-09-26T11:20:55Z</time></trkpt><trkpt lat="46.680607" lon="8.867780"><ele>1649.28</ele><time>2015-09-26T11:21:09Z</time></trkpt><trkpt lat="46.680466" lon="8.867992"><ele>1646.88</ele><time>2015-09-26T11:21:24Z</time></trkpt><trkpt lat="46.680405" lon="8.868082"><ele>1645.43</ele><time>2015-09-26T11:21:31Z</time></trkpt><trkpt lat="46.680286" lon="8.868308"><ele>1643.03</ele><time>2015-09-26T11:21:47Z</time></trkpt><trkpt lat="46.680172" lon="8.868538"><ele>1640.15</ele><time>2015-09-26T11:22:03Z</time></trkpt><trkpt lat="46.680069" lon="8.868744"><ele>1637.74</ele><time>2015-09-26T11:22:17Z</time></trkpt><trkpt lat="46.679951" lon="8.868951"><ele>1635.82</ele><time>2015-09-26T11:22:31Z</time></trkpt><trkpt lat="46.679863" lon="8.869200"><ele>1632.94</ele><time>2015-09-26T11:22:46Z</time></trkpt><trkpt lat="46.679829" lon="8.869328"><ele>1631.98</ele><time>2015-09-26T11:22:53Z</time></trkpt><trkpt lat="46.679821" lon="8.869360"><ele>1631.49</ele><time>2015-09-26T11:22:55Z</time></trkpt><trkpt lat="46.679798" lon="8.869449"><ele>1630.53</ele><time>2015-09-26T11:23:00Z</time></trkpt><trkpt lat="46.679718" lon="8.869768"><ele>1627.65</ele><time>2015-09-26T11:23:18Z</time></trkpt><trkpt lat="46.679676" lon="8.869971"><ele>1624.77</ele><time>2015-09-26T11:23:30Z</time></trkpt><trkpt lat="46.679634" lon="8.870232"><ele>1622.84</ele><time>2015-09-26T11:23:45Z</time></trkpt><trkpt lat="46.679619" lon="8.870379"><ele>1622.36</ele><time>2015-09-26T11:23:53Z</time></trkpt><trkpt lat="46.679607" lon="8.870451"><ele>1621.88</ele><time>2015-09-26T11:23:57Z</time></trkpt><trkpt lat="46.679558" lon="8.870555"><ele>1620.92</ele><time>2015-09-26T11:24:03Z</time></trkpt><trkpt lat="46.679523" lon="8.870579"><ele>1620.92</ele><time>2015-09-26T11:24:06Z</time></trkpt><trkpt lat="46.679459" lon="8.870518"><ele>1619.48</ele><time>2015-09-26T11:24:12Z</time></trkpt><trkpt lat="46.679504" lon="8.870305"><ele>1619.00</ele><time>2015-09-26T11:24:23Z</time></trkpt><trkpt lat="46.679531" lon="8.870124"><ele>1617.56</ele><time>2015-09-26T11:24:33Z</time></trkpt><trkpt lat="46.679527" lon="8.870089"><ele>1617.56</ele><time>2015-09-26T11:24:49Z</time></trkpt><trkpt lat="46.679527" lon="8.870089"><ele>1617.07</ele><time>2015-09-26T11:25:16Z</time></trkpt><trkpt lat="46.679523" lon="8.870073"><ele>1616.59</ele><time>2015-09-26T11:25:36Z</time></trkpt><trkpt lat="46.679523" lon="8.870073"><ele>1617.07</ele><time>2015-09-26T11:25:57Z</time></trkpt><trkpt lat="46.679527" lon="8.870066"><ele>1615.63</ele><time>2015-09-26T11:26:18Z</time></trkpt><trkpt lat="46.679523" lon="8.870055"><ele>1616.11</ele><time>2015-09-26T11:26:25Z</time></trkpt><trkpt lat="46.679527" lon="8.870003"><ele>1615.63</ele><time>2015-09-26T11:26:29Z</time></trkpt><trkpt lat="46.679523" lon="8.869947"><ele>1615.63</ele><time>2015-09-26T11:26:33Z</time></trkpt><trkpt lat="46.679527" lon="8.869861"><ele>1614.67</ele><time>2015-09-26T11:26:39Z</time></trkpt><trkpt lat="46.679527" lon="8.869822"><ele>1614.67</ele><time>2015-09-26T11:26:41Z</time></trkpt><trkpt lat="46.679539" lon="8.869628"><ele>1612.75</ele><time>2015-09-26T11:26:51Z</time></trkpt><trkpt lat="46.679558" lon="8.869415"><ele>1611.31</ele><time>2015-09-26T11:27:02Z</time></trkpt><trkpt lat="46.679569" lon="8.869229"><ele>1610.83</ele><time>2015-09-26T11:27:13Z</time></trkpt><trkpt lat="46.679585" lon="8.869032"><ele>1609.86</ele><time>2015-09-26T11:27:24Z</time></trkpt><trkpt lat="46.679588" lon="8.868807"><ele>1609.38</ele><time>2015-09-26T11:27:35Z</time></trkpt><trkpt lat="46.679585" lon="8.868741"><ele>1608.90</ele><time>2015-09-26T11:27:47Z</time></trkpt><trkpt lat="46.679585" lon="8.868741"><ele>1608.90</ele><time>2015-09-26T11:28:05Z</time></trkpt><trkpt lat="46.679585" lon="8.868743"><ele>1608.90</ele><time>2015-09-26T11:28:26Z</time></trkpt><trkpt lat="46.679588" lon="8.868735"><ele>1608.90</ele><time>2015-09-26T11:28:48Z</time></trkpt><trkpt lat="46.679592" lon="8.868733"><ele>1608.42</ele><time>2015-09-26T11:28:57Z</time></trkpt><trkpt lat="46.679600" lon="8.868661"><ele>1608.90</ele><time>2015-09-26T11:29:01Z</time></trkpt><trkpt lat="46.679626" lon="8.868466"><ele>1607.94</ele><time>2015-09-26T11:29:12Z</time></trkpt><trkpt lat="46.679653" lon="8.868238"><ele>1607.94</ele><time>2015-09-26T11:29:24Z</time></trkpt><trkpt lat="46.679672" lon="8.868031"><ele>1606.98</ele><time>2015-09-26T11:29:35Z</time></trkpt><trkpt lat="46.679695" lon="8.867820"><ele>1606.50</ele><time>2015-09-26T11:29:46Z</time></trkpt><trkpt lat="46.679695" lon="8.867810"><ele>1606.50</ele><time>2015-09-26T11:29:50Z</time></trkpt><trkpt lat="46.679699" lon="8.867754"><ele>1606.02</ele><time>2015-09-26T11:29:53Z</time></trkpt><trkpt lat="46.679722" lon="8.867542"><ele>1605.06</ele><time>2015-09-26T11:30:04Z</time></trkpt><trkpt lat="46.679737" lon="8.867373"><ele>1603.14</ele><time>2015-09-26T11:30:13Z</time></trkpt><trkpt lat="46.679745" lon="8.867310"><ele>1602.66</ele><time>2015-09-26T11:30:17Z</time></trkpt><trkpt lat="46.679760" lon="8.867252"><ele>1602.17</ele><time>2015-09-26T11:30:20Z</time></trkpt><trkpt lat="46.679768" lon="8.867148"><ele>1601.69</ele><time>2015-09-26T11:30:25Z</time></trkpt><trkpt lat="46.679783" lon="8.866968"><ele>1599.29</ele><time>2015-09-26T11:30:35Z</time></trkpt><trkpt lat="46.679798" lon="8.866858"><ele>1598.81</ele><time>2015-09-26T11:30:41Z</time></trkpt><trkpt lat="46.679813" lon="8.866653"><ele>1596.89</ele><time>2015-09-26T11:30:51Z</time></trkpt><trkpt lat="46.679821" lon="8.866452"><ele>1594.96</ele><time>2015-09-26T11:31:01Z</time></trkpt><trkpt lat="46.679825" lon="8.866271"><ele>1593.52</ele><time>2015-09-26T11:31:10Z</time></trkpt><trkpt lat="46.679829" lon="8.866083"><ele>1591.60</ele><time>2015-09-26T11:31:20Z</time></trkpt><trkpt lat="46.679829" lon="8.865883"><ele>1589.68</ele><time>2015-09-26T11:31:31Z</time></trkpt><trkpt lat="46.679825" lon="8.865824"><ele>1589.68</ele><time>2015-09-26T11:31:34Z</time></trkpt><trkpt lat="46.679813" lon="8.865609"><ele>1588.72</ele><time>2015-09-26T11:31:45Z</time></trkpt><trkpt lat="46.679806" lon="8.865428"><ele>1588.24</ele><time>2015-09-26T11:31:54Z</time></trkpt><trkpt lat="46.679779" lon="8.865212"><ele>1587.27</ele><time>2015-09-26T11:32:05Z</time></trkpt><trkpt lat="46.679756" lon="8.865002"><ele>1588.24</ele><time>2015-09-26T11:32:15Z</time></trkpt><trkpt lat="46.679768" lon="8.864757"><ele>1590.64</ele><time>2015-09-26T11:32:28Z</time></trkpt><trkpt lat="46.679768" lon="8.864708"><ele>1591.12</ele><time>2015-09-26T11:32:31Z</time></trkpt><trkpt lat="46.679817" lon="8.864480"><ele>1594.00</ele><time>2015-09-26T11:32:46Z</time></trkpt><trkpt lat="46.679840" lon="8.864410"><ele>1594.48</ele><time>2015-09-26T11:32:51Z</time></trkpt><trkpt lat="46.679863" lon="8.864249"><ele>1595.93</ele><time>2015-09-26T11:33:01Z</time></trkpt><trkpt lat="46.679867" lon="8.863976"><ele>1595.45</ele><time>2015-09-26T11:33:15Z</time></trkpt><trkpt lat="46.679859" lon="8.863920"><ele>1595.45</ele><time>2015-09-26T11:33:18Z</time></trkpt><trkpt lat="46.679760" lon="8.863709"><ele>1594.00</ele><time>2015-09-26T11:33:33Z</time></trkpt><trkpt lat="46.679638" lon="8.863563"><ele>1591.60</ele><time>2015-09-26T11:33:45Z</time></trkpt><trkpt lat="46.679546" lon="8.863489"><ele>1591.12</ele><time>2015-09-26T11:33:55Z</time></trkpt><trkpt lat="46.679417" lon="8.863356"><ele>1587.27</ele><time>2015-09-26T11:34:08Z</time></trkpt><trkpt lat="46.679440" lon="8.863158"><ele>1585.83</ele><time>2015-09-26T11:34:20Z</time></trkpt><trkpt lat="46.679451" lon="8.863140"><ele>1585.35</ele><time>2015-09-26T11:34:22Z</time></trkpt><trkpt lat="46.679485" lon="8.863004"><ele>1583.91</ele><time>2015-09-26T11:34:30Z</time></trkpt><trkpt lat="46.679539" lon="8.862911"><ele>1582.47</ele><time>2015-09-26T11:34:38Z</time></trkpt><trkpt lat="46.679546" lon="8.862884"><ele>1582.47</ele><time>2015-09-26T11:34:40Z</time></trkpt><trkpt lat="46.679573" lon="8.862827"><ele>1581.51</ele><time>2015-09-26T11:34:44Z</time></trkpt><trkpt lat="46.679611" lon="8.862773"><ele>1580.54</ele><time>2015-09-26T11:34:57Z</time></trkpt><trkpt lat="46.679611" lon="8.862770"><ele>1580.54</ele><time>2015-09-26T11:35:23Z</time></trkpt><trkpt lat="46.679611" lon="8.862770"><ele>1580.06</ele><time>2015-09-26T11:35:52Z</time></trkpt><trkpt lat="46.679615" lon="8.862764"><ele>1581.03</ele><time>2015-09-26T11:36:13Z</time></trkpt><trkpt lat="46.679619" lon="8.862736"><ele>1580.06</ele><time>2015-09-26T11:36:15Z</time></trkpt><trkpt lat="46.679634" lon="8.862715"><ele>1579.58</ele><time>2015-09-26T11:36:17Z</time></trkpt><trkpt lat="46.679657" lon="8.862694"><ele>1579.58</ele><time>2015-09-26T11:36:30Z</time></trkpt><trkpt lat="46.679672" lon="8.862659"><ele>1579.10</ele><time>2015-09-26T11:36:55Z</time></trkpt><trkpt lat="46.679714" lon="8.862575"><ele>1578.14</ele><time>2015-09-26T11:37:02Z</time></trkpt><trkpt lat="46.679775" lon="8.862399"><ele>1576.22</ele><time>2015-09-26T11:37:12Z</time></trkpt><trkpt lat="46.679840" lon="8.862272"><ele>1574.78</ele><time>2015-09-26T11:37:21Z</time></trkpt><trkpt lat="46.679882" lon="8.862144"><ele>1573.82</ele><time>2015-09-26T11:37:28Z</time></trkpt><trkpt lat="46.679893" lon="8.862112"><ele>1573.82</ele><time>2015-09-26T11:37:30Z</time></trkpt><trkpt lat="46.679893" lon="8.861959"><ele>1572.37</ele><time>2015-09-26T11:37:38Z</time></trkpt><trkpt lat="46.679882" lon="8.861755"><ele>1570.45</ele><time>2015-09-26T11:37:50Z</time></trkpt><trkpt lat="46.679878" lon="8.861746"><ele>1569.97</ele><time>2015-09-26T11:37:51Z</time></trkpt><trkpt lat="46.679844" lon="8.861519"><ele>1567.57</ele><time>2015-09-26T11:38:04Z</time></trkpt><trkpt lat="46.679852" lon="8.861293"><ele>1566.12</ele><time>2015-09-26T11:38:16Z</time></trkpt><trkpt lat="46.679855" lon="8.861278"><ele>1565.64</ele><time>2015-09-26T11:38:17Z</time></trkpt><trkpt lat="46.679913" lon="8.861169"><ele>1564.68</ele><time>2015-09-26T11:38:25Z</time></trkpt><trkpt lat="46.679924" lon="8.861066"><ele>1563.72</ele><time>2015-09-26T11:38:30Z</time></trkpt><trkpt lat="46.679913" lon="8.860992"><ele>1563.72</ele><time>2015-09-26T11:38:34Z</time></trkpt><trkpt lat="46.679863" lon="8.860985"><ele>1562.76</ele><time>2015-09-26T11:38:38Z</time></trkpt><trkpt lat="46.679787" lon="8.861085"><ele>1561.80</ele><time>2015-09-26T11:38:46Z</time></trkpt><trkpt lat="46.679676" lon="8.861315"><ele>1559.40</ele><time>2015-09-26T11:39:01Z</time></trkpt><trkpt lat="46.679539" lon="8.861519"><ele>1556.99</ele><time>2015-09-26T11:39:15Z</time></trkpt><trkpt lat="46.679455" lon="8.861644"><ele>1554.59</ele><time>2015-09-26T11:39:24Z</time></trkpt><trkpt lat="46.679371" lon="8.861770"><ele>1552.67</ele><time>2015-09-26T11:39:33Z</time></trkpt><trkpt lat="46.679234" lon="8.862007"><ele>1549.78</ele><time>2015-09-26T11:39:48Z</time></trkpt><trkpt lat="46.679222" lon="8.862021"><ele>1549.78</ele><time>2015-09-26T11:39:49Z</time></trkpt><trkpt lat="46.679104" lon="8.862195"><ele>1547.38</ele><time>2015-09-26T11:40:02Z</time></trkpt><trkpt lat="46.678951" lon="8.862375"><ele>1544.01</ele><time>2015-09-26T11:40:18Z</time></trkpt><trkpt lat="46.678905" lon="8.862414"><ele>1543.05</ele><time>2015-09-26T11:40:22Z</time></trkpt><trkpt lat="46.678780" lon="8.862526"><ele>1541.61</ele><time>2015-09-26T11:40:34Z</time></trkpt><trkpt lat="46.678711" lon="8.862576"><ele>1540.65</ele><time>2015-09-26T11:40:40Z</time></trkpt><trkpt lat="46.678646" lon="8.862629"><ele>1539.21</ele><time>2015-09-26T11:40:46Z</time></trkpt><trkpt lat="46.678452" lon="8.862764"><ele>1535.84</ele><time>2015-09-26T11:41:03Z</time></trkpt><trkpt lat="46.678295" lon="8.862873"><ele>1533.44</ele><time>2015-09-26T11:41:17Z</time></trkpt><trkpt lat="46.678177" lon="8.863072"><ele>1531.04</ele><time>2015-09-26T11:41:31Z</time></trkpt><trkpt lat="46.678158" lon="8.863116"><ele>1530.56</ele><time>2015-09-26T11:41:34Z</time></trkpt><trkpt lat="46.678143" lon="8.863169"><ele>1530.08</ele><time>2015-09-26T11:41:37Z</time></trkpt><trkpt lat="46.678043" lon="8.863450"><ele>1527.19</ele><time>2015-09-26T11:41:55Z</time></trkpt><trkpt lat="46.678013" lon="8.863579"><ele>1525.75</ele><time>2015-09-26T11:42:02Z</time></trkpt><trkpt lat="46.678009" lon="8.863611"><ele>1525.27</ele><time>2015-09-26T11:42:04Z</time></trkpt><trkpt lat="46.678013" lon="8.863696"><ele>1524.31</ele><time>2015-09-26T11:42:09Z</time></trkpt><trkpt lat="46.678078" lon="8.863932"><ele>1521.90</ele><time>2015-09-26T11:42:23Z</time></trkpt><trkpt lat="46.678097" lon="8.864010"><ele>1520.46</ele><time>2015-09-26T11:42:28Z</time></trkpt><trkpt lat="46.678120" lon="8.864069"><ele>1519.98</ele><time>2015-09-26T11:42:32Z</time></trkpt><trkpt lat="46.678169" lon="8.864241"><ele>1517.58</ele><time>2015-09-26T11:42:48Z</time></trkpt><trkpt lat="46.678188" lon="8.864331"><ele>1517.10</ele><time>2015-09-26T11:42:58Z</time></trkpt><trkpt lat="46.678299" lon="8.864540"><ele>1514.69</ele><time>2015-09-26T11:43:13Z</time></trkpt><trkpt lat="46.678360" lon="8.864657"><ele>1513.25</ele><time>2015-09-26T11:43:21Z</time></trkpt><trkpt lat="46.678398" lon="8.864883"><ele>1510.37</ele><time>2015-09-26T11:43:35Z</time></trkpt><trkpt lat="46.678398" lon="8.864916"><ele>1510.37</ele><time>2015-09-26T11:43:49Z</time></trkpt><trkpt lat="46.678406" lon="8.864928"><ele>1510.37</ele><time>2015-09-26T11:43:51Z</time></trkpt><trkpt lat="46.678402" lon="8.864989"><ele>1509.89</ele><time>2015-09-26T11:43:55Z</time></trkpt><trkpt lat="46.678329" lon="8.865240"><ele>1507.00</ele><time>2015-09-26T11:44:11Z</time></trkpt><trkpt lat="46.678246" lon="8.865482"><ele>1504.60</ele><time>2015-09-26T11:44:26Z</time></trkpt><trkpt lat="46.678158" lon="8.865787"><ele>1502.20</ele><time>2015-09-26T11:44:43Z</time></trkpt><trkpt lat="46.678146" lon="8.865801"><ele>1502.20</ele><time>2015-09-26T11:44:44Z</time></trkpt><trkpt lat="46.678043" lon="8.865981"><ele>1502.20</ele><time>2015-09-26T11:44:57Z</time></trkpt><trkpt lat="46.677952" lon="8.866190"><ele>1502.68</ele><time>2015-09-26T11:45:12Z</time></trkpt><trkpt lat="46.677929" lon="8.866183"><ele>1502.20</ele><time>2015-09-26T11:45:16Z</time></trkpt><trkpt lat="46.677887" lon="8.866138"><ele>1501.24</ele><time>2015-09-26T11:45:22Z</time></trkpt><trkpt lat="46.677868" lon="8.866104"><ele>1499.79</ele><time>2015-09-26T11:45:26Z</time></trkpt><trkpt lat="46.677792" lon="8.865997"><ele>1496.91</ele><time>2015-09-26T11:45:37Z</time></trkpt><trkpt lat="46.677700" lon="8.865941"><ele>1494.99</ele><time>2015-09-26T11:45:48Z</time></trkpt><trkpt lat="46.677608" lon="8.865894"><ele>1491.62</ele><time>2015-09-26T11:46:01Z</time></trkpt><trkpt lat="46.677586" lon="8.865851"><ele>1489.70</ele><time>2015-09-26T11:46:14Z</time></trkpt><trkpt lat="46.677525" lon="8.865782"><ele>1487.78</ele><time>2015-09-26T11:46:28Z</time></trkpt><trkpt lat="46.677494" lon="8.865755"><ele>1486.82</ele><time>2015-09-26T11:46:33Z</time></trkpt><trkpt lat="46.677437" lon="8.865674"><ele>1483.45</ele><time>2015-09-26T11:46:43Z</time></trkpt><trkpt lat="46.677383" lon="8.865602"><ele>1481.05</ele><time>2015-09-26T11:46:52Z</time></trkpt><trkpt lat="46.677338" lon="8.865553"><ele>1479.61</ele><time>2015-09-26T11:47:00Z</time></trkpt><trkpt lat="46.677322" lon="8.865526"><ele>1478.65</ele><time>2015-09-26T11:47:02Z</time></trkpt><trkpt lat="46.677288" lon="8.865390"><ele>1474.32</ele><time>2015-09-26T11:47:14Z</time></trkpt><trkpt lat="46.677277" lon="8.865354"><ele>1473.84</ele><time>2015-09-26T11:47:17Z</time></trkpt><trkpt lat="46.677250" lon="8.865275"><ele>1471.92</ele><time>2015-09-26T11:47:24Z</time></trkpt><trkpt lat="46.677231" lon="8.865134"><ele>1468.55</ele><time>2015-09-26T11:47:36Z</time></trkpt><trkpt lat="46.677216" lon="8.865064"><ele>1467.59</ele><time>2015-09-26T11:47:42Z</time></trkpt><trkpt lat="46.677216" lon="8.865038"><ele>1466.15</ele><time>2015-09-26T11:47:44Z</time></trkpt><trkpt lat="46.677189" lon="8.865004"><ele>1465.19</ele><time>2015-09-26T11:47:50Z</time></trkpt><trkpt lat="46.677139" lon="8.864999"><ele>1463.74</ele><time>2015-09-26T11:47:55Z</time></trkpt><trkpt lat="46.677094" lon="8.865047"><ele>1461.34</ele><time>2015-09-26T11:48:01Z</time></trkpt><trkpt lat="46.676979" lon="8.865186"><ele>1459.42</ele><time>2015-09-26T11:48:14Z</time></trkpt><trkpt lat="46.676937" lon="8.865213"><ele>1458.46</ele><time>2015-09-26T11:48:18Z</time></trkpt><trkpt lat="46.676888" lon="8.865297"><ele>1455.57</ele><time>2015-09-26T11:48:30Z</time></trkpt><trkpt lat="46.676872" lon="8.865322"><ele>1455.57</ele><time>2015-09-26T11:48:34Z</time></trkpt><trkpt lat="46.676849" lon="8.865394"><ele>1454.61</ele><time>2015-09-26T11:48:39Z</time></trkpt><trkpt lat="46.676834" lon="8.865445"><ele>1453.65</ele><time>2015-09-26T11:48:43Z</time></trkpt><trkpt lat="46.676746" lon="8.865588"><ele>1451.73</ele><time>2015-09-26T11:48:56Z</time></trkpt><trkpt lat="46.676685" lon="8.865734"><ele>1448.84</ele><time>2015-09-26T11:49:10Z</time></trkpt><trkpt lat="46.676670" lon="8.865769"><ele>1447.88</ele><time>2015-09-26T11:49:13Z</time></trkpt><trkpt lat="46.676628" lon="8.865901"><ele>1445.00</ele><time>2015-09-26T11:49:24Z</time></trkpt><trkpt lat="46.676628" lon="8.865916"><ele>1445.00</ele><time>2015-09-26T11:49:25Z</time></trkpt><trkpt lat="46.676624" lon="8.866010"><ele>1443.56</ele><time>2015-09-26T11:49:32Z</time></trkpt><trkpt lat="46.676643" lon="8.866075"><ele>1442.60</ele><time>2015-09-26T11:49:42Z</time></trkpt><trkpt lat="46.676655" lon="8.866102"><ele>1442.11</ele><time>2015-09-26T11:49:44Z</time></trkpt><trkpt lat="46.676685" lon="8.866205"><ele>1440.67</ele><time>2015-09-26T11:49:51Z</time></trkpt><trkpt lat="46.676723" lon="8.866403"><ele>1440.19</ele><time>2015-09-26T11:50:05Z</time></trkpt><trkpt lat="46.676739" lon="8.866513"><ele>1438.27</ele><time>2015-09-26T11:50:12Z</time></trkpt><trkpt lat="46.676785" lon="8.866739"><ele>1436.83</ele><time>2015-09-26T11:50:25Z</time></trkpt><trkpt lat="46.676785" lon="8.866858"><ele>1436.35</ele><time>2015-09-26T11:50:32Z</time></trkpt><trkpt lat="46.676792" lon="8.866914"><ele>1435.87</ele><time>2015-09-26T11:50:36Z</time></trkpt><trkpt lat="46.676804" lon="8.867016"><ele>1433.94</ele><time>2015-09-26T11:50:42Z</time></trkpt><trkpt lat="46.676815" lon="8.867061"><ele>1432.98</ele><time>2015-09-26T11:50:45Z</time></trkpt><trkpt lat="46.676823" lon="8.867174"><ele>1431.54</ele><time>2015-09-26T11:50:57Z</time></trkpt><trkpt lat="46.676819" lon="8.867208"><ele>1430.10</ele><time>2015-09-26T11:51:09Z</time></trkpt><trkpt lat="46.676804" lon="8.867294"><ele>1427.21</ele><time>2015-09-26T11:51:21Z</time></trkpt><trkpt lat="46.676788" lon="8.867341"><ele>1426.73</ele><time>2015-09-26T11:51:24Z</time></trkpt><trkpt lat="46.676769" lon="8.867423"><ele>1425.29</ele><time>2015-09-26T11:51:38Z</time></trkpt><trkpt lat="46.676746" lon="8.867525"><ele>1421.93</ele><time>2015-09-26T11:51:49Z</time></trkpt><trkpt lat="46.676670" lon="8.867649"><ele>1420.49</ele><time>2015-09-26T11:52:01Z</time></trkpt><trkpt lat="46.676666" lon="8.867662"><ele>1420.00</ele><time>2015-09-26T11:52:02Z</time></trkpt><trkpt lat="46.676552" lon="8.867769"><ele>1418.08</ele><time>2015-09-26T11:52:14Z</time></trkpt><trkpt lat="46.676540" lon="8.867766"><ele>1418.56</ele><time>2015-09-26T11:52:15Z</time></trkpt><trkpt lat="46.676510" lon="8.867747"><ele>1417.60</ele><time>2015-09-26T11:52:25Z</time></trkpt><trkpt lat="46.676510" lon="8.867747"><ele>1417.60</ele><time>2015-09-26T11:52:26Z</time></trkpt><trkpt lat="46.676506" lon="8.867639"><ele>1416.16</ele><time>2015-09-26T11:52:38Z</time></trkpt><trkpt lat="46.676502" lon="8.867603"><ele>1415.68</ele><time>2015-09-26T11:52:40Z</time></trkpt><trkpt lat="46.676472" lon="8.867526"><ele>1414.72</ele><time>2015-09-26T11:52:45Z</time></trkpt><trkpt lat="46.676449" lon="8.867485"><ele>1414.72</ele><time>2015-09-26T11:52:49Z</time></trkpt><trkpt lat="46.676437" lon="8.867440"><ele>1414.24</ele><time>2015-09-26T11:52:52Z</time></trkpt><trkpt lat="46.676422" lon="8.867357"><ele>1413.28</ele><time>2015-09-26T11:52:58Z</time></trkpt><trkpt lat="46.676422" lon="8.867260"><ele>1411.83</ele><time>2015-09-26T11:53:05Z</time></trkpt><trkpt lat="46.676388" lon="8.867145"><ele>1410.39</ele><time>2015-09-26T11:53:18Z</time></trkpt><trkpt lat="46.676388" lon="8.867115"><ele>1409.91</ele><time>2015-09-26T11:53:35Z</time></trkpt><trkpt lat="46.676350" lon="8.867053"><ele>1408.47</ele><time>2015-09-26T11:53:40Z</time></trkpt><trkpt lat="46.676308" lon="8.866948"><ele>1406.55</ele><time>2015-09-26T11:53:50Z</time></trkpt><trkpt lat="46.676281" lon="8.866851"><ele>1404.62</ele><time>2015-09-26T11:54:01Z</time></trkpt><trkpt lat="46.676243" lon="8.866718"><ele>1403.66</ele><time>2015-09-26T11:54:12Z</time></trkpt><trkpt lat="46.676231" lon="8.866681"><ele>1402.22</ele><time>2015-09-26T11:54:14Z</time></trkpt><trkpt lat="46.676208" lon="8.866572"><ele>1401.26</ele><time>2015-09-26T11:54:21Z</time></trkpt><trkpt lat="46.676136" lon="8.866470"><ele>1400.30</ele><time>2015-09-26T11:54:33Z</time></trkpt><trkpt lat="46.676132" lon="8.866461"><ele>1399.34</ele><time>2015-09-26T11:54:39Z</time></trkpt><trkpt lat="46.676098" lon="8.866394"><ele>1398.37</ele><time>2015-09-26T11:54:45Z</time></trkpt><trkpt lat="46.676071" lon="8.866337"><ele>1397.89</ele><time>2015-09-26T11:54:50Z</time></trkpt><trkpt lat="46.676044" lon="8.866247"><ele>1395.97</ele><time>2015-09-26T11:54:56Z</time></trkpt><trkpt lat="46.676048" lon="8.866118"><ele>1395.01</ele><time>2015-09-26T11:55:01Z</time></trkpt><trkpt lat="46.676079" lon="8.865769"><ele>1394.53</ele><time>2015-09-26T11:55:15Z</time></trkpt><trkpt lat="46.676075" lon="8.865635"><ele>1393.09</ele><time>2015-09-26T11:55:23Z</time></trkpt><trkpt lat="46.676052" lon="8.865462"><ele>1390.68</ele><time>2015-09-26T11:55:35Z</time></trkpt><trkpt lat="46.676018" lon="8.865435"><ele>1389.72</ele><time>2015-09-26T11:55:39Z</time></trkpt><trkpt lat="46.675983" lon="8.865389"><ele>1387.80</ele><time>2015-09-26T11:55:47Z</time></trkpt><trkpt lat="46.675980" lon="8.865220"><ele>1385.40</ele><time>2015-09-26T11:55:56Z</time></trkpt><trkpt lat="46.676018" lon="8.865125"><ele>1386.84</ele><time>2015-09-26T11:56:04Z</time></trkpt><trkpt lat="46.676044" lon="8.865083"><ele>1386.84</ele><time>2015-09-26T11:56:08Z</time></trkpt><trkpt lat="46.676071" lon="8.864911"><ele>1385.40</ele><time>2015-09-26T11:56:21Z</time></trkpt><trkpt lat="46.676067" lon="8.864834"><ele>1383.47</ele><time>2015-09-26T11:56:30Z</time></trkpt><trkpt lat="46.676037" lon="8.864774"><ele>1382.51</ele><time>2015-09-26T11:56:39Z</time></trkpt><trkpt lat="46.675991" lon="8.864732"><ele>1383.47</ele><time>2015-09-26T11:56:50Z</time></trkpt><trkpt lat="46.675980" lon="8.864730"><ele>1382.99</ele><time>2015-09-26T11:57:02Z</time></trkpt><trkpt lat="46.675926" lon="8.864719"><ele>1382.99</ele><time>2015-09-26T11:57:16Z</time></trkpt><trkpt lat="46.675926" lon="8.864714"><ele>1383.47</ele><time>2015-09-26T11:57:28Z</time></trkpt><trkpt lat="46.675842" lon="8.864679"><ele>1384.44</ele><time>2015-09-26T11:57:38Z</time></trkpt><trkpt lat="46.675816" lon="8.864648"><ele>1384.92</ele><time>2015-09-26T11:57:41Z</time></trkpt><trkpt lat="46.675762" lon="8.864472"><ele>1383.96</ele><time>2015-09-26T11:57:53Z</time></trkpt><trkpt lat="46.675755" lon="8.864446"><ele>1383.96</ele><time>2015-09-26T11:57:55Z</time></trkpt><trkpt lat="46.675743" lon="8.864351"><ele>1383.47</ele><time>2015-09-26T11:58:01Z</time></trkpt><trkpt lat="46.675709" lon="8.864275"><ele>1382.03</ele><time>2015-09-26T11:58:06Z</time></trkpt><trkpt lat="46.675644" lon="8.864165"><ele>1382.51</ele><time>2015-09-26T11:58:14Z</time></trkpt><trkpt lat="46.675617" lon="8.864117"><ele>1382.99</ele><time>2015-09-26T11:58:18Z</time></trkpt><trkpt lat="46.675552" lon="8.863921"><ele>1380.59</ele><time>2015-09-26T11:58:31Z</time></trkpt><trkpt lat="46.675549" lon="8.863894"><ele>1380.11</ele><time>2015-09-26T11:58:33Z</time></trkpt><trkpt lat="46.675556" lon="8.863673"><ele>1380.59</ele><time>2015-09-26T11:58:45Z</time></trkpt><trkpt lat="46.675552" lon="8.863661"><ele>1381.07</ele><time>2015-09-26T11:58:46Z</time></trkpt><trkpt lat="46.675549" lon="8.863587"><ele>1380.59</ele><time>2015-09-26T11:58:50Z</time></trkpt><trkpt lat="46.675533" lon="8.863527"><ele>1381.07</ele><time>2015-09-26T11:58:54Z</time></trkpt><trkpt lat="46.675514" lon="8.863293"><ele>1382.03</ele><time>2015-09-26T11:59:08Z</time></trkpt><trkpt lat="46.675510" lon="8.863236"><ele>1381.55</ele><time>2015-09-26T11:59:11Z</time></trkpt><trkpt lat="46.675442" lon="8.863026"><ele>1382.51</ele><time>2015-09-26T11:59:25Z</time></trkpt><trkpt lat="46.675419" lon="8.862995"><ele>1381.07</ele><time>2015-09-26T11:59:38Z</time></trkpt><trkpt lat="46.675350" lon="8.862757"><ele>1381.55</ele><time>2015-09-26T11:59:51Z</time></trkpt><trkpt lat="46.675320" lon="8.862653"><ele>1383.47</ele><time>2015-09-26T11:59:58Z</time></trkpt><trkpt lat="46.675304" lon="8.862556"><ele>1383.47</ele><time>2015-09-26T12:00:05Z</time></trkpt><trkpt lat="46.675289" lon="8.862486"><ele>1384.44</ele><time>2015-09-26T12:00:10Z</time></trkpt><trkpt lat="46.675293" lon="8.862463"><ele>1383.96</ele><time>2015-09-26T12:00:23Z</time></trkpt><trkpt lat="46.675282" lon="8.862422"><ele>1382.99</ele><time>2015-09-26T12:00:28Z</time></trkpt><trkpt lat="46.675282" lon="8.862336"><ele>1383.96</ele><time>2015-09-26T12:00:34Z</time></trkpt><trkpt lat="46.675289" lon="8.862303"><ele>1382.99</ele><time>2015-09-26T12:00:36Z</time></trkpt><trkpt lat="46.675266" lon="8.862019"><ele>1384.92</ele><time>2015-09-26T12:00:52Z</time></trkpt><trkpt lat="46.675255" lon="8.862001"><ele>1384.44</ele><time>2015-09-26T12:00:53Z</time></trkpt><trkpt lat="46.675209" lon="8.861800"><ele>1384.44</ele><time>2015-09-26T12:01:04Z</time></trkpt><trkpt lat="46.675175" lon="8.861599"><ele>1385.40</ele><time>2015-09-26T12:01:17Z</time></trkpt><trkpt lat="46.675148" lon="8.861497"><ele>1383.96</ele><time>2015-09-26T12:01:31Z</time></trkpt><trkpt lat="46.675137" lon="8.861443"><ele>1384.44</ele><time>2015-09-26T12:01:34Z</time></trkpt><trkpt lat="46.675114" lon="8.861375"><ele>1382.99</ele><time>2015-09-26T12:01:39Z</time></trkpt><trkpt lat="46.675091" lon="8.861321"><ele>1382.03</ele><time>2015-09-26T12:01:43Z</time></trkpt><trkpt lat="46.675072" lon="8.861289"><ele>1382.51</ele><time>2015-09-26T12:01:45Z</time></trkpt><trkpt lat="46.675037" lon="8.861205"><ele>1380.11</ele><time>2015-09-26T12:01:52Z</time></trkpt><trkpt lat="46.675022" lon="8.861187"><ele>1380.11</ele><time>2015-09-26T12:01:54Z</time></trkpt><trkpt lat="46.674999" lon="8.861079"><ele>1379.15</ele><time>2015-09-26T12:02:00Z</time></trkpt><trkpt lat="46.674995" lon="8.861023"><ele>1378.67</ele><time>2015-09-26T12:02:04Z</time></trkpt><trkpt lat="46.675003" lon="8.860978"><ele>1378.67</ele><time>2015-09-26T12:02:07Z</time></trkpt><trkpt lat="46.674976" lon="8.860834"><ele>1376.26</ele><time>2015-09-26T12:02:16Z</time></trkpt><trkpt lat="46.674915" lon="8.860780"><ele>1375.78</ele><time>2015-09-26T12:02:22Z</time></trkpt><trkpt lat="46.674892" lon="8.860728"><ele>1375.30</ele><time>2015-09-26T12:02:32Z</time></trkpt><trkpt lat="46.674870" lon="8.860710"><ele>1375.30</ele><time>2015-09-26T12:02:34Z</time></trkpt><trkpt lat="46.674740" lon="8.860543"><ele>1372.90</ele><time>2015-09-26T12:02:48Z</time></trkpt><trkpt lat="46.674683" lon="8.860484"><ele>1370.98</ele><time>2015-09-26T12:02:54Z</time></trkpt><trkpt lat="46.674530" lon="8.860361"><ele>1368.57</ele><time>2015-09-26T12:03:08Z</time></trkpt><trkpt lat="46.674507" lon="8.860347"><ele>1368.09</ele><time>2015-09-26T12:03:10Z</time></trkpt><trkpt lat="46.674412" lon="8.860239"><ele>1367.61</ele><time>2015-09-26T12:03:20Z</time></trkpt><trkpt lat="46.674232" lon="8.860148"><ele>1364.73</ele><time>2015-09-26T12:03:35Z</time></trkpt><trkpt lat="46.674011" lon="8.860241"><ele>1363.77</ele><time>2015-09-26T12:03:52Z</time></trkpt><trkpt lat="46.673832" lon="8.860242"><ele>1363.77</ele><time>2015-09-26T12:04:06Z</time></trkpt><trkpt lat="46.673676" lon="8.860174"><ele>1363.29</ele><time>2015-09-26T12:04:19Z</time></trkpt><trkpt lat="46.673489" lon="8.860058"><ele>1361.84</ele><time>2015-09-26T12:04:34Z</time></trkpt><trkpt lat="46.673481" lon="8.860049"><ele>1362.33</ele><time>2015-09-26T12:04:35Z</time></trkpt><trkpt lat="46.673439" lon="8.859950"><ele>1360.88</ele><time>2015-09-26T12:04:42Z</time></trkpt><trkpt lat="46.673412" lon="8.859794"><ele>1359.44</ele><time>2015-09-26T12:04:54Z</time></trkpt><trkpt lat="46.673435" lon="8.859735"><ele>1358.96</ele><time>2015-09-26T12:04:59Z</time></trkpt><trkpt lat="46.673492" lon="8.859671"><ele>1357.04</ele><time>2015-09-26T12:05:13Z</time></trkpt><trkpt lat="46.673492" lon="8.859671"><ele>1355.60</ele><time>2015-09-26T12:05:24Z</time></trkpt><trkpt lat="46.673492" lon="8.859671"><ele>1358.48</ele><time>2015-09-26T12:05:27Z</time></trkpt></trkseg></trk></gpx>